
<gpx xmlns="http://www.topografix.com/GPX/1/1" xmlns:gpxx="http://www.garmin.com/xmlschemas/GpxExtensions/v3" xmlns:wptx1="http://www.garmin.com/xmlschemas/WaypointExtension/v1" xmlns:xsi="http://www.w3.org/2001/XMLSchema-instance" version="1.1" creator="Adze - https://getadze.com/" xsi:schemaLocation="http://www.topografix.com/GPX/1/1 http://www.topografix.com/GPX/1/1/gpx.xsd http://www.garmin.com/xmlschemas/GpxExtensions/v3 http://www8.garmin.com/xmlschemas/GpxExtensionsv3.xsd http://www.garmin.com/xmlschemas/WaypointExtension/v1 http://www8.garmin.com/xmlschemas/WaypointExtensionv1.xsd">
    <metadata>
        <name>Untitled Document</name>
        <link href="http://www.garmin.com"></link>
        <time>2018-03-06T04:50:14.479Z</time>
    </metadata>
    <wpt lon="101.074095" lat="14.293796">
        <ele>-53.000000</ele>
        <name>Banna Resort</name>
        <cmt>16-DEC-06 12:55:30</cmt>
        <desc>16-DEC-06 12:55:30</desc>
        <sym>Block, Blue</sym>
        <type>user</type>
        <extensions>
            <gpxx:WaypointExtension>
                <gpxx:DisplayMode>SymbolOnly</gpxx:DisplayMode>
            </gpxx:WaypointExtension>
            <wptx1:WaypointExtension>
                <wptx1:DisplayMode>SymbolOnly</wptx1:DisplayMode>
            </wptx1:WaypointExtension>
        </extensions>
    </wpt>
    <trk>
        <name>December 2006 - Saturday</name>
        <extensions>
            <gpxx:TrackExtension>
                <gpxx:DisplayColor>Black</gpxx:DisplayColor>
            </gpxx:TrackExtension>
        </extensions>
        <trkseg>
            <trkpt lon="101.075009" lat="14.293603">
                <ele>2.060059</ele>
                <time>2006-12-16T06:08:30Z</time>
            </trkpt>
            <trkpt lon="101.075262" lat="14.293545">
                <ele>3.021240</ele>
                <time>2006-12-16T06:08:44Z</time>
            </trkpt>
            <trkpt lon="101.075433" lat="14.293904">
                <ele>4.463257</ele>
                <time>2006-12-16T06:08:55Z</time>
            </trkpt>
            <trkpt lon="101.075456" lat="14.294035">
                <ele>4.943848</ele>
                <time>2006-12-16T06:08:58Z</time>
            </trkpt>
            <trkpt lon="101.075595" lat="14.294176">
                <ele>4.463257</ele>
                <time>2006-12-16T06:09:03Z</time>
            </trkpt>
            <trkpt lon="101.076359" lat="14.294134">
                <ele>6.385864</ele>
                <time>2006-12-16T06:09:20Z</time>
            </trkpt>
            <trkpt lon="101.077345" lat="14.294139">
                <ele>6.385864</ele>
                <time>2006-12-16T06:09:39Z</time>
            </trkpt>
            <trkpt lon="101.078276" lat="14.294079">
                <ele>4.943848</ele>
                <time>2006-12-16T06:10:00Z</time>
            </trkpt>
            <trkpt lon="101.078276" lat="14.293685">
                <ele>3.501953</ele>
                <time>2006-12-16T06:10:10Z</time>
            </trkpt>
            <trkpt lon="101.078120" lat="14.292600">
                <ele>1.579346</ele>
                <time>2006-12-16T06:10:30Z</time>
            </trkpt>
            <trkpt lon="101.077978" lat="14.291617">
                <ele>1.098633</ele>
                <time>2006-12-16T06:10:47Z</time>
            </trkpt>
            <trkpt lon="101.078160" lat="14.291508">
                <ele>0.618042</ele>
                <time>2006-12-16T06:10:53Z</time>
            </trkpt>
            <trkpt lon="101.079130" lat="14.291466">
                <ele>2.060059</ele>
                <time>2006-12-16T06:11:11Z</time>
            </trkpt>
            <trkpt lon="101.080220" lat="14.291453">
                <ele>1.579346</ele>
                <time>2006-12-16T06:11:32Z</time>
            </trkpt>
            <trkpt lon="101.080370" lat="14.291437">
                <ele>2.060059</ele>
                <time>2006-12-16T06:11:35Z</time>
            </trkpt>
            <trkpt lon="101.080687" lat="14.291338">
                <ele>1.579346</ele>
                <time>2006-12-16T06:11:42Z</time>
            </trkpt>
            <trkpt lon="101.080787" lat="14.291579">
                <ele>-0.343384</ele>
                <time>2006-12-16T06:11:50Z</time>
            </trkpt>
            <trkpt lon="101.080853" lat="14.291580">
                <ele>-1.304688</ele>
                <time>2006-12-16T06:11:53Z</time>
            </trkpt>
            <trkpt lon="101.081401" lat="14.291573">
                <ele>-0.824097</ele>
                <time>2006-12-16T06:12:07Z</time>
            </trkpt>
            <trkpt lon="101.082281" lat="14.291551">
                <ele>0.618042</ele>
                <time>2006-12-16T06:12:24Z</time>
            </trkpt>
            <trkpt lon="101.083527" lat="14.291510">
                <ele>2.540649</ele>
                <time>2006-12-16T06:12:48Z</time>
            </trkpt>
            <trkpt lon="101.083597" lat="14.291500">
                <ele>2.060059</ele>
                <time>2006-12-16T06:13:00Z</time>
            </trkpt>
            <trkpt lon="101.083593" lat="14.291328">
                <ele>1.579346</ele>
                <time>2006-12-16T06:13:09Z</time>
            </trkpt>
            <trkpt lon="101.083673" lat="14.291233">
                <ele>1.098633</ele>
                <time>2006-12-16T06:13:17Z</time>
            </trkpt>
            <trkpt lon="101.083726" lat="14.291204">
                <ele>1.098633</ele>
                <time>2006-12-16T06:13:19Z</time>
            </trkpt>
            <trkpt lon="101.084156" lat="14.291080">
                <ele>0.137451</ele>
                <time>2006-12-16T06:13:32Z</time>
            </trkpt>
            <trkpt lon="101.084613" lat="14.290992">
                <ele>0.137451</ele>
                <time>2006-12-16T06:13:46Z</time>
            </trkpt>
            <trkpt lon="101.084929" lat="14.290846">
                <ele>0.137451</ele>
                <time>2006-12-16T06:13:57Z</time>
            </trkpt>
            <trkpt lon="101.084931" lat="14.290729">
                <ele>-0.343384</ele>
                <time>2006-12-16T06:14:00Z</time>
            </trkpt>
            <trkpt lon="101.085131" lat="14.290107">
                <ele>0.137451</ele>
                <time>2006-12-16T06:14:15Z</time>
            </trkpt>
            <trkpt lon="101.085532" lat="14.289481">
                <ele>0.137451</ele>
                <time>2006-12-16T06:14:31Z</time>
            </trkpt>
            <trkpt lon="101.085658" lat="14.289356">
                <ele>0.137451</ele>
                <time>2006-12-16T06:14:35Z</time>
            </trkpt>
            <trkpt lon="101.085906" lat="14.289196">
                <ele>0.137451</ele>
                <time>2006-12-16T06:14:41Z</time>
            </trkpt>
            <trkpt lon="101.085999" lat="14.289160">
                <ele>0.618042</ele>
                <time>2006-12-16T06:14:43Z</time>
            </trkpt>
            <trkpt lon="101.086112" lat="14.288933">
                <ele>0.618042</ele>
                <time>2006-12-16T06:14:49Z</time>
            </trkpt>
            <trkpt lon="101.086108" lat="14.288735">
                <ele>1.098633</ele>
                <time>2006-12-16T06:14:53Z</time>
            </trkpt>
            <trkpt lon="101.086378" lat="14.288317">
                <ele>1.098633</ele>
                <time>2006-12-16T06:15:03Z</time>
            </trkpt>
            <trkpt lon="101.086869" lat="14.287914">
                <ele>1.098633</ele>
                <time>2006-12-16T06:15:15Z</time>
            </trkpt>
            <trkpt lon="101.086984" lat="14.287692">
                <ele>-0.343384</ele>
                <time>2006-12-16T06:15:20Z</time>
            </trkpt>
            <trkpt lon="101.086987" lat="14.287423">
                <ele>-0.343384</ele>
                <time>2006-12-16T06:15:26Z</time>
            </trkpt>
            <trkpt lon="101.086790" lat="14.287081">
                <ele>-0.343384</ele>
                <time>2006-12-16T06:15:35Z</time>
            </trkpt>
            <trkpt lon="101.086738" lat="14.286888">
                <ele>-0.343384</ele>
                <time>2006-12-16T06:15:41Z</time>
            </trkpt>
            <trkpt lon="101.086722" lat="14.286870">
                <ele>-0.343384</ele>
                <time>2006-12-16T06:15:43Z</time>
            </trkpt>
            <trkpt lon="101.086691" lat="14.286855">
                <ele>-0.343384</ele>
                <time>2006-12-16T06:15:46Z</time>
            </trkpt>
            <trkpt lon="101.086739" lat="14.286849">
                <ele>0.137451</ele>
                <time>2006-12-16T06:15:50Z</time>
            </trkpt>
            <trkpt lon="101.087224" lat="14.286919">
                <ele>0.618042</ele>
                <time>2006-12-16T06:16:04Z</time>
            </trkpt>
            <trkpt lon="101.088173" lat="14.287043">
                <ele>0.618042</ele>
                <time>2006-12-16T06:16:22Z</time>
            </trkpt>
            <trkpt lon="101.089136" lat="14.287083">
                <ele>2.060059</ele>
                <time>2006-12-16T06:16:39Z</time>
            </trkpt>
            <trkpt lon="101.089420" lat="14.286935">
                <ele>2.060059</ele>
                <time>2006-12-16T06:16:45Z</time>
            </trkpt>
            <trkpt lon="101.089498" lat="14.286861">
                <ele>2.060059</ele>
                <time>2006-12-16T06:16:47Z</time>
            </trkpt>
            <trkpt lon="101.089779" lat="14.286437">
                <ele>2.060059</ele>
                <time>2006-12-16T06:16:57Z</time>
            </trkpt>
            <trkpt lon="101.090001" lat="14.286394">
                <ele>1.579346</ele>
                <time>2006-12-16T06:17:04Z</time>
            </trkpt>
            <trkpt lon="101.090064" lat="14.287174">
                <ele>2.060059</ele>
                <time>2006-12-16T06:17:20Z</time>
            </trkpt>
            <trkpt lon="101.090406" lat="14.287747">
                <ele>2.060059</ele>
                <time>2006-12-16T06:17:33Z</time>
            </trkpt>
            <trkpt lon="101.090532" lat="14.288054">
                <ele>1.579346</ele>
                <time>2006-12-16T06:17:39Z</time>
            </trkpt>
            <trkpt lon="101.090562" lat="14.288268">
                <ele>2.060059</ele>
                <time>2006-12-16T06:17:43Z</time>
            </trkpt>
            <trkpt lon="101.090678" lat="14.288617">
                <ele>1.579346</ele>
                <time>2006-12-16T06:17:50Z</time>
            </trkpt>
            <trkpt lon="101.090957" lat="14.288860">
                <ele>1.098633</ele>
                <time>2006-12-16T06:17:57Z</time>
            </trkpt>
            <trkpt lon="101.091152" lat="14.288921">
                <ele>1.579346</ele>
                <time>2006-12-16T06:18:01Z</time>
            </trkpt>
            <trkpt lon="101.091284" lat="14.289062">
                <ele>1.579346</ele>
                <time>2006-12-16T06:18:05Z</time>
            </trkpt>
            <trkpt lon="101.091335" lat="14.289274">
                <ele>1.579346</ele>
                <time>2006-12-16T06:18:09Z</time>
            </trkpt>
            <trkpt lon="101.091606" lat="14.289435">
                <ele>2.060059</ele>
                <time>2006-12-16T06:18:17Z</time>
            </trkpt>
            <trkpt lon="101.092008" lat="14.289364">
                <ele>2.060059</ele>
                <time>2006-12-16T06:18:26Z</time>
            </trkpt>
            <trkpt lon="101.092347" lat="14.289544">
                <ele>2.540649</ele>
                <time>2006-12-16T06:18:34Z</time>
            </trkpt>
            <trkpt lon="101.092987" lat="14.290366">
                <ele>4.943848</ele>
                <time>2006-12-16T06:18:53Z</time>
            </trkpt>
            <trkpt lon="101.093151" lat="14.290704">
                <ele>4.943848</ele>
                <time>2006-12-16T06:19:00Z</time>
            </trkpt>
            <trkpt lon="101.093160" lat="14.290922">
                <ele>4.463257</ele>
                <time>2006-12-16T06:19:04Z</time>
            </trkpt>
            <trkpt lon="101.093261" lat="14.291189">
                <ele>3.982666</ele>
                <time>2006-12-16T06:19:09Z</time>
            </trkpt>
            <trkpt lon="101.093850" lat="14.291854">
                <ele>4.943848</ele>
                <time>2006-12-16T06:19:24Z</time>
            </trkpt>
            <trkpt lon="101.094298" lat="14.292306">
                <ele>4.943848</ele>
                <time>2006-12-16T06:19:36Z</time>
            </trkpt>
            <trkpt lon="101.094490" lat="14.292397">
                <ele>4.463257</ele>
                <time>2006-12-16T06:19:40Z</time>
            </trkpt>
            <trkpt lon="101.094552" lat="14.292655">
                <ele>3.982666</ele>
                <time>2006-12-16T06:19:46Z</time>
            </trkpt>
            <trkpt lon="101.094505" lat="14.292757">
                <ele>3.501953</ele>
                <time>2006-12-16T06:19:48Z</time>
            </trkpt>
            <trkpt lon="101.094658" lat="14.293225">
                <ele>4.463257</ele>
                <time>2006-12-16T06:19:58Z</time>
            </trkpt>
            <trkpt lon="101.094735" lat="14.293291">
                <ele>3.982666</ele>
                <time>2006-12-16T06:20:00Z</time>
            </trkpt>
            <trkpt lon="101.094843" lat="14.293469">
                <ele>3.501953</ele>
                <time>2006-12-16T06:20:04Z</time>
            </trkpt>
            <trkpt lon="101.095183" lat="14.294466">
                <ele>3.021240</ele>
                <time>2006-12-16T06:20:24Z</time>
            </trkpt>
            <trkpt lon="101.095199" lat="14.294561">
                <ele>3.021240</ele>
                <time>2006-12-16T06:20:26Z</time>
            </trkpt>
            <trkpt lon="101.095157" lat="14.294984">
                <ele>3.021240</ele>
                <time>2006-12-16T06:20:34Z</time>
            </trkpt>
            <trkpt lon="101.095194" lat="14.295444">
                <ele>4.463257</ele>
                <time>2006-12-16T06:20:44Z</time>
            </trkpt>
            <trkpt lon="101.095164" lat="14.295740">
                <ele>3.501953</ele>
                <time>2006-12-16T06:20:50Z</time>
            </trkpt>
            <trkpt lon="101.095198" lat="14.295934">
                <ele>3.982666</ele>
                <time>2006-12-16T06:20:54Z</time>
            </trkpt>
            <trkpt lon="101.095448" lat="14.296460">
                <ele>3.501953</ele>
                <time>2006-12-16T06:21:10Z</time>
            </trkpt>
            <trkpt lon="101.095630" lat="14.296959">
                <ele>1.579346</ele>
                <time>2006-12-16T06:21:27Z</time>
            </trkpt>
            <trkpt lon="101.095632" lat="14.296986">
                <ele>2.540649</ele>
                <time>2006-12-16T06:21:41Z</time>
            </trkpt>
            <trkpt lon="101.095679" lat="14.296991">
                <ele>3.501953</ele>
                <time>2006-12-16T06:21:48Z</time>
            </trkpt>
            <trkpt lon="101.095750" lat="14.296968">
                <ele>3.501953</ele>
                <time>2006-12-16T06:22:03Z</time>
            </trkpt>
            <trkpt lon="101.095838" lat="14.296946">
                <ele>1.579346</ele>
                <time>2006-12-16T06:22:23Z</time>
            </trkpt>
            <trkpt lon="101.096239" lat="14.296752">
                <ele>1.579346</ele>
                <time>2006-12-16T06:22:38Z</time>
            </trkpt>
            <trkpt lon="101.097114" lat="14.296624">
                <ele>1.098633</ele>
                <time>2006-12-16T06:22:55Z</time>
            </trkpt>
            <trkpt lon="101.097742" lat="14.296533">
                <ele>1.579346</ele>
                <time>2006-12-16T06:23:07Z</time>
            </trkpt>
            <trkpt lon="101.097890" lat="14.296358">
                <ele>1.579346</ele>
                <time>2006-12-16T06:23:12Z</time>
            </trkpt>
            <trkpt lon="101.098064" lat="14.296151">
                <ele>1.579346</ele>
                <time>2006-12-16T06:23:18Z</time>
            </trkpt>
            <trkpt lon="101.098401" lat="14.296042">
                <ele>1.579346</ele>
                <time>2006-12-16T06:23:25Z</time>
            </trkpt>
            <trkpt lon="101.099552" lat="14.295769">
                <ele>1.579346</ele>
                <time>2006-12-16T06:23:47Z</time>
            </trkpt>
            <trkpt lon="101.100794" lat="14.295471">
                <ele>3.021240</ele>
                <time>2006-12-16T06:24:10Z</time>
            </trkpt>
            <trkpt lon="101.101629" lat="14.295269">
                <ele>3.021240</ele>
                <time>2006-12-16T06:24:26Z</time>
            </trkpt>
            <trkpt lon="101.101807" lat="14.295386">
                <ele>3.021240</ele>
                <time>2006-12-16T06:24:32Z</time>
            </trkpt>
            <trkpt lon="101.102141" lat="14.296250">
                <ele>5.424561</ele>
                <time>2006-12-16T06:24:51Z</time>
            </trkpt>
            <trkpt lon="101.102564" lat="14.297326">
                <ele>5.905273</ele>
                <time>2006-12-16T06:25:11Z</time>
            </trkpt>
            <trkpt lon="101.102972" lat="14.298299">
                <ele>6.385864</ele>
                <time>2006-12-16T06:25:30Z</time>
            </trkpt>
            <trkpt lon="101.102997" lat="14.298345">
                <ele>6.385864</ele>
                <time>2006-12-16T06:25:31Z</time>
            </trkpt>
            <trkpt lon="101.103476" lat="14.299371">
                <ele>6.866455</ele>
                <time>2006-12-16T06:25:52Z</time>
            </trkpt>
            <trkpt lon="101.103540" lat="14.299499">
                <ele>6.866455</ele>
                <time>2006-12-16T06:25:55Z</time>
            </trkpt>
            <trkpt lon="101.103496" lat="14.299772">
                <ele>7.347168</ele>
                <time>2006-12-16T06:26:03Z</time>
            </trkpt>
            <trkpt lon="101.102612" lat="14.300110">
                <ele>6.866455</ele>
                <time>2006-12-16T06:26:21Z</time>
            </trkpt>
            <trkpt lon="101.101463" lat="14.300467">
                <ele>6.866455</ele>
                <time>2006-12-16T06:26:41Z</time>
            </trkpt>
            <trkpt lon="101.101357" lat="14.300501">
                <ele>6.866455</ele>
                <time>2006-12-16T06:26:43Z</time>
            </trkpt>
            <trkpt lon="101.101072" lat="14.300543">
                <ele>6.866455</ele>
                <time>2006-12-16T06:26:48Z</time>
            </trkpt>
            <trkpt lon="101.100979" lat="14.300687">
                <ele>6.385864</ele>
                <time>2006-12-16T06:26:52Z</time>
            </trkpt>
            <trkpt lon="101.100939" lat="14.300823">
                <ele>6.385864</ele>
                <time>2006-12-16T06:26:55Z</time>
            </trkpt>
            <trkpt lon="101.100587" lat="14.301040">
                <ele>6.385864</ele>
                <time>2006-12-16T06:27:04Z</time>
            </trkpt>
            <trkpt lon="101.100308" lat="14.301153">
                <ele>5.905273</ele>
                <time>2006-12-16T06:27:13Z</time>
            </trkpt>
            <trkpt lon="101.100171" lat="14.301194">
                <ele>5.424561</ele>
                <time>2006-12-16T06:27:22Z</time>
            </trkpt>
            <trkpt lon="101.100183" lat="14.301204">
                <ele>5.424561</ele>
                <time>2006-12-16T06:27:28Z</time>
            </trkpt>
            <trkpt lon="101.100404" lat="14.301110">
                <ele>5.424561</ele>
                <time>2006-12-16T06:27:39Z</time>
            </trkpt>
            <trkpt lon="101.100482" lat="14.301078">
                <ele>5.424561</ele>
                <time>2006-12-16T06:27:43Z</time>
            </trkpt>
            <trkpt lon="101.100775" lat="14.301410">
                <ele>5.424561</ele>
                <time>2006-12-16T06:27:57Z</time>
            </trkpt>
            <trkpt lon="101.100873" lat="14.301822">
                <ele>6.385864</ele>
                <time>2006-12-16T06:28:07Z</time>
            </trkpt>
            <trkpt lon="101.101052" lat="14.302219">
                <ele>5.424561</ele>
                <time>2006-12-16T06:28:17Z</time>
            </trkpt>
            <trkpt lon="101.101145" lat="14.302834">
                <ele>7.347168</ele>
                <time>2006-12-16T06:28:31Z</time>
            </trkpt>
            <trkpt lon="101.100956" lat="14.303028">
                <ele>6.385864</ele>
                <time>2006-12-16T06:28:37Z</time>
            </trkpt>
            <trkpt lon="101.100678" lat="14.303161">
                <ele>5.905273</ele>
                <time>2006-12-16T06:28:43Z</time>
            </trkpt>
            <trkpt lon="101.100575" lat="14.303376">
                <ele>6.385864</ele>
                <time>2006-12-16T06:28:49Z</time>
            </trkpt>
            <trkpt lon="101.100661" lat="14.303704">
                <ele>6.866455</ele>
                <time>2006-12-16T06:28:57Z</time>
            </trkpt>
            <trkpt lon="101.100667" lat="14.303793">
                <ele>6.866455</ele>
                <time>2006-12-16T06:28:59Z</time>
            </trkpt>
            <trkpt lon="101.100604" lat="14.304209">
                <ele>6.866455</ele>
                <time>2006-12-16T06:29:10Z</time>
            </trkpt>
            <trkpt lon="101.100609" lat="14.304284">
                <ele>6.866455</ele>
                <time>2006-12-16T06:29:12Z</time>
            </trkpt>
            <trkpt lon="101.100422" lat="14.304520">
                <ele>7.347168</ele>
                <time>2006-12-16T06:29:20Z</time>
            </trkpt>
            <trkpt lon="101.099985" lat="14.304647">
                <ele>7.347168</ele>
                <time>2006-12-16T06:29:29Z</time>
            </trkpt>
            <trkpt lon="101.099624" lat="14.304712">
                <ele>7.827881</ele>
                <time>2006-12-16T06:29:36Z</time>
            </trkpt>
            <trkpt lon="101.099318" lat="14.304835">
                <ele>6.866455</ele>
                <time>2006-12-16T06:29:43Z</time>
            </trkpt>
            <trkpt lon="101.099087" lat="14.304857">
                <ele>5.905273</ele>
                <time>2006-12-16T06:29:52Z</time>
            </trkpt>
            <trkpt lon="101.099109" lat="14.304839">
                <ele>6.385864</ele>
                <time>2006-12-16T06:29:59Z</time>
            </trkpt>
            <trkpt lon="101.099381" lat="14.304917">
                <ele>4.943848</ele>
                <time>2006-12-16T06:30:13Z</time>
            </trkpt>
            <trkpt lon="101.099447" lat="14.305109">
                <ele>5.905273</ele>
                <time>2006-12-16T06:30:25Z</time>
            </trkpt>
            <trkpt lon="101.099484" lat="14.305151">
                <ele>6.385864</ele>
                <time>2006-12-16T06:30:29Z</time>
            </trkpt>
            <trkpt lon="101.099539" lat="14.305499">
                <ele>6.866455</ele>
                <time>2006-12-16T06:30:47Z</time>
            </trkpt>
            <trkpt lon="101.099546" lat="14.305574">
                <ele>7.347168</ele>
                <time>2006-12-16T06:30:50Z</time>
            </trkpt>
            <trkpt lon="101.099564" lat="14.305601">
                <ele>7.827881</ele>
                <time>2006-12-16T06:30:52Z</time>
            </trkpt>
            <trkpt lon="101.099604" lat="14.305627">
                <ele>7.347168</ele>
                <time>2006-12-16T06:30:56Z</time>
            </trkpt>
            <trkpt lon="101.099698" lat="14.305706">
                <ele>6.385864</ele>
                <time>2006-12-16T06:31:06Z</time>
            </trkpt>
            <trkpt lon="101.099719" lat="14.305711">
                <ele>6.385864</ele>
                <time>2006-12-16T06:31:08Z</time>
            </trkpt>
            <trkpt lon="101.099816" lat="14.305746">
                <ele>5.424561</ele>
                <time>2006-12-16T06:31:16Z</time>
            </trkpt>
            <trkpt lon="101.099989" lat="14.305849">
                <ele>5.424561</ele>
                <time>2006-12-16T06:31:31Z</time>
            </trkpt>
            <trkpt lon="101.100040" lat="14.305879">
                <ele>4.943848</ele>
                <time>2006-12-16T06:31:36Z</time>
            </trkpt>
            <trkpt lon="101.100077" lat="14.305886">
                <ele>4.943848</ele>
                <time>2006-12-16T06:31:45Z</time>
            </trkpt>
            <trkpt lon="101.100159" lat="14.306085">
                <ele>5.905273</ele>
                <time>2006-12-16T06:32:02Z</time>
            </trkpt>
            <trkpt lon="101.100181" lat="14.306124">
                <ele>6.385864</ele>
                <time>2006-12-16T06:32:06Z</time>
            </trkpt>
            <trkpt lon="101.100253" lat="14.306270">
                <ele>6.385864</ele>
                <time>2006-12-16T06:32:19Z</time>
            </trkpt>
            <trkpt lon="101.100478" lat="14.306664">
                <ele>6.385864</ele>
                <time>2006-12-16T06:32:34Z</time>
            </trkpt>
            <trkpt lon="101.100758" lat="14.307119">
                <ele>6.866455</ele>
                <time>2006-12-16T06:32:48Z</time>
            </trkpt>
            <trkpt lon="101.100946" lat="14.307548">
                <ele>7.347168</ele>
                <time>2006-12-16T06:33:01Z</time>
            </trkpt>
            <trkpt lon="101.100730" lat="14.307665">
                <ele>7.347168</ele>
                <time>2006-12-16T06:33:10Z</time>
            </trkpt>
            <trkpt lon="101.100319" lat="14.307761">
                <ele>7.347168</ele>
                <time>2006-12-16T06:33:22Z</time>
            </trkpt>
            <trkpt lon="101.100315" lat="14.307860">
                <ele>6.385864</ele>
                <time>2006-12-16T06:33:26Z</time>
            </trkpt>
            <trkpt lon="101.100478" lat="14.308492">
                <ele>6.866455</ele>
                <time>2006-12-16T06:33:44Z</time>
            </trkpt>
            <trkpt lon="101.100644" lat="14.309142">
                <ele>7.827881</ele>
                <time>2006-12-16T06:34:02Z</time>
            </trkpt>
            <trkpt lon="101.100660" lat="14.309179">
                <ele>7.827881</ele>
                <time>2006-12-16T06:34:03Z</time>
            </trkpt>
            <trkpt lon="101.100621" lat="14.309661">
                <ele>8.308594</ele>
                <time>2006-12-16T06:34:16Z</time>
            </trkpt>
            <trkpt lon="101.100507" lat="14.310136">
                <ele>8.789185</ele>
                <time>2006-12-16T06:34:31Z</time>
            </trkpt>
            <trkpt lon="101.100398" lat="14.310555">
                <ele>9.269897</ele>
                <time>2006-12-16T06:34:44Z</time>
            </trkpt>
            <trkpt lon="101.100384" lat="14.311045">
                <ele>9.750610</ele>
                <time>2006-12-16T06:34:58Z</time>
            </trkpt>
            <trkpt lon="101.100265" lat="14.311458">
                <ele>9.269897</ele>
                <time>2006-12-16T06:35:11Z</time>
            </trkpt>
            <trkpt lon="101.100335" lat="14.311874">
                <ele>9.269897</ele>
                <time>2006-12-16T06:35:26Z</time>
            </trkpt>
            <trkpt lon="101.100366" lat="14.311920">
                <ele>9.269897</ele>
                <time>2006-12-16T06:35:29Z</time>
            </trkpt>
            <trkpt lon="101.100359" lat="14.311952">
                <ele>10.231201</ele>
                <time>2006-12-16T06:35:45Z</time>
            </trkpt>
            <trkpt lon="101.100392" lat="14.312069">
                <ele>10.231201</ele>
                <time>2006-12-16T06:35:57Z</time>
            </trkpt>
            <trkpt lon="101.100601" lat="14.312449">
                <ele>9.750610</ele>
                <time>2006-12-16T06:36:10Z</time>
            </trkpt>
            <trkpt lon="101.100821" lat="14.312865">
                <ele>10.231201</ele>
                <time>2006-12-16T06:36:23Z</time>
            </trkpt>
            <trkpt lon="101.100944" lat="14.313157">
                <ele>11.192505</ele>
                <time>2006-12-16T06:36:33Z</time>
            </trkpt>
            <trkpt lon="101.101085" lat="14.313139">
                <ele>10.711792</ele>
                <time>2006-12-16T06:36:39Z</time>
            </trkpt>
            <trkpt lon="101.101167" lat="14.313113">
                <ele>11.192505</ele>
                <time>2006-12-16T06:36:42Z</time>
            </trkpt>
            <trkpt lon="101.101403" lat="14.313415">
                <ele>11.192505</ele>
                <time>2006-12-16T06:36:55Z</time>
            </trkpt>
            <trkpt lon="101.101653" lat="14.313974">
                <ele>12.153809</ele>
                <time>2006-12-16T06:37:12Z</time>
            </trkpt>
            <trkpt lon="101.101731" lat="14.314074">
                <ele>13.115112</ele>
                <time>2006-12-16T06:37:16Z</time>
            </trkpt>
            <trkpt lon="101.101858" lat="14.314386">
                <ele>15.037720</ele>
                <time>2006-12-16T06:37:28Z</time>
            </trkpt>
            <trkpt lon="101.101953" lat="14.314780">
                <ele>15.518433</ele>
                <time>2006-12-16T06:37:45Z</time>
            </trkpt>
            <trkpt lon="101.102009" lat="14.314985">
                <ele>17.921753</ele>
                <time>2006-12-16T06:37:56Z</time>
            </trkpt>
            <trkpt lon="101.101683" lat="14.315266">
                <ele>18.402344</ele>
                <time>2006-12-16T06:38:09Z</time>
            </trkpt>
            <trkpt lon="101.101038" lat="14.315852">
                <ele>18.883057</ele>
                <time>2006-12-16T06:38:27Z</time>
            </trkpt>
            <trkpt lon="101.100232" lat="14.316597">
                <ele>17.921753</ele>
                <time>2006-12-16T06:38:47Z</time>
            </trkpt>
            <trkpt lon="101.100200" lat="14.316630">
                <ele>17.921753</ele>
                <time>2006-12-16T06:38:48Z</time>
            </trkpt>
            <trkpt lon="101.100151" lat="14.316846">
                <ele>17.441162</ele>
                <time>2006-12-16T06:38:54Z</time>
            </trkpt>
            <trkpt lon="101.100409" lat="14.317465">
                <ele>16.960449</ele>
                <time>2006-12-16T06:39:11Z</time>
            </trkpt>
            <trkpt lon="101.100715" lat="14.318025">
                <ele>16.960449</ele>
                <time>2006-12-16T06:39:28Z</time>
            </trkpt>
            <trkpt lon="101.100983" lat="14.318426">
                <ele>16.960449</ele>
                <time>2006-12-16T06:39:44Z</time>
            </trkpt>
            <trkpt lon="101.101244" lat="14.318805">
                <ele>18.402344</ele>
                <time>2006-12-16T06:40:03Z</time>
            </trkpt>
            <trkpt lon="101.101482" lat="14.319062">
                <ele>20.324951</ele>
                <time>2006-12-16T06:40:20Z</time>
            </trkpt>
            <trkpt lon="101.101666" lat="14.319303">
                <ele>23.689575</ele>
                <time>2006-12-16T06:40:36Z</time>
            </trkpt>
            <trkpt lon="101.101907" lat="14.319584">
                <ele>24.651001</ele>
                <time>2006-12-16T06:40:51Z</time>
            </trkpt>
            <trkpt lon="101.102156" lat="14.319914">
                <ele>28.015503</ele>
                <time>2006-12-16T06:41:08Z</time>
            </trkpt>
            <trkpt lon="101.102375" lat="14.320117">
                <ele>30.418823</ele>
                <time>2006-12-16T06:41:18Z</time>
            </trkpt>
            <trkpt lon="101.102411" lat="14.320147">
                <ele>30.899536</ele>
                <time>2006-12-16T06:41:21Z</time>
            </trkpt>
            <trkpt lon="101.102394" lat="14.320219">
                <ele>31.860718</ele>
                <time>2006-12-16T06:41:25Z</time>
            </trkpt>
            <trkpt lon="101.102236" lat="14.320378">
                <ele>31.860718</ele>
                <time>2006-12-16T06:41:40Z</time>
            </trkpt>
            <trkpt lon="101.102194" lat="14.320483">
                <ele>34.264160</ele>
                <time>2006-12-16T06:41:53Z</time>
            </trkpt>
            <trkpt lon="101.102201" lat="14.320512">
                <ele>34.264160</ele>
                <time>2006-12-16T06:41:56Z</time>
            </trkpt>
            <trkpt lon="101.102118" lat="14.320663">
                <ele>39.551270</ele>
                <time>2006-12-16T06:42:15Z</time>
            </trkpt>
            <trkpt lon="101.102059" lat="14.320819">
                <ele>40.993408</ele>
                <time>2006-12-16T06:42:34Z</time>
            </trkpt>
            <trkpt lon="101.102027" lat="14.321018">
                <ele>44.358032</ele>
                <time>2006-12-16T06:42:57Z</time>
            </trkpt>
            <trkpt lon="101.101945" lat="14.321192">
                <ele>48.203369</ele>
                <time>2006-12-16T06:43:18Z</time>
            </trkpt>
            <trkpt lon="101.101882" lat="14.321303">
                <ele>51.087158</ele>
                <time>2006-12-16T06:43:37Z</time>
            </trkpt>
            <trkpt lon="101.101855" lat="14.321343">
                <ele>53.009766</ele>
                <time>2006-12-16T06:44:10Z</time>
            </trkpt>
            <trkpt lon="101.101735" lat="14.321646">
                <ele>51.087158</ele>
                <time>2006-12-16T06:44:27Z</time>
            </trkpt>
            <trkpt lon="101.101806" lat="14.321909">
                <ele>46.761230</ele>
                <time>2006-12-16T06:44:34Z</time>
            </trkpt>
            <trkpt lon="101.102143" lat="14.322192">
                <ele>44.838623</ele>
                <time>2006-12-16T06:44:46Z</time>
            </trkpt>
            <trkpt lon="101.102255" lat="14.322264">
                <ele>44.838623</ele>
                <time>2006-12-16T06:44:55Z</time>
            </trkpt>
            <trkpt lon="101.102381" lat="14.322349">
                <ele>45.319214</ele>
                <time>2006-12-16T06:45:11Z</time>
            </trkpt>
            <trkpt lon="101.102523" lat="14.322514">
                <ele>40.512817</ele>
                <time>2006-12-16T06:45:24Z</time>
            </trkpt>
            <trkpt lon="101.102678" lat="14.322621">
                <ele>38.590088</ele>
                <time>2006-12-16T06:45:29Z</time>
            </trkpt>
            <trkpt lon="101.102699" lat="14.322841">
                <ele>37.628662</ele>
                <time>2006-12-16T06:45:37Z</time>
            </trkpt>
            <trkpt lon="101.102280" lat="14.323233">
                <ele>33.302856</ele>
                <time>2006-12-16T06:45:50Z</time>
            </trkpt>
            <trkpt lon="101.101895" lat="14.323637">
                <ele>30.418823</ele>
                <time>2006-12-16T06:46:00Z</time>
            </trkpt>
            <trkpt lon="101.101300" lat="14.324141">
                <ele>25.612305</ele>
                <time>2006-12-16T06:46:14Z</time>
            </trkpt>
            <trkpt lon="101.100468" lat="14.324726">
                <ele>21.286377</ele>
                <time>2006-12-16T06:46:33Z</time>
            </trkpt>
            <trkpt lon="101.099513" lat="14.325406">
                <ele>20.805664</ele>
                <time>2006-12-16T06:46:56Z</time>
            </trkpt>
            <trkpt lon="101.099434" lat="14.325476">
                <ele>20.805664</ele>
                <time>2006-12-16T06:46:59Z</time>
            </trkpt>
            <trkpt lon="101.099524" lat="14.325686">
                <ele>19.844360</ele>
                <time>2006-12-16T06:47:08Z</time>
            </trkpt>
            <trkpt lon="101.099276" lat="14.325863">
                <ele>18.402344</ele>
                <time>2006-12-16T06:47:16Z</time>
            </trkpt>
            <trkpt lon="101.099062" lat="14.325934">
                <ele>18.402344</ele>
                <time>2006-12-16T06:47:21Z</time>
            </trkpt>
            <trkpt lon="101.098969" lat="14.325946">
                <ele>18.402344</ele>
                <time>2006-12-16T06:47:23Z</time>
            </trkpt>
            <trkpt lon="101.097927" lat="14.326432">
                <ele>16.479736</ele>
                <time>2006-12-16T06:47:48Z</time>
            </trkpt>
            <trkpt lon="101.097555" lat="14.326594">
                <ele>17.441162</ele>
                <time>2006-12-16T06:47:56Z</time>
            </trkpt>
            <trkpt lon="101.096667" lat="14.326965">
                <ele>15.518433</ele>
                <time>2006-12-16T06:48:16Z</time>
            </trkpt>
            <trkpt lon="101.096556" lat="14.327043">
                <ele>15.518433</ele>
                <time>2006-12-16T06:48:19Z</time>
            </trkpt>
            <trkpt lon="101.096095" lat="14.327527">
                <ele>14.557007</ele>
                <time>2006-12-16T06:48:35Z</time>
            </trkpt>
            <trkpt lon="101.095520" lat="14.328011">
                <ele>13.595825</ele>
                <time>2006-12-16T06:48:54Z</time>
            </trkpt>
            <trkpt lon="101.094801" lat="14.328593">
                <ele>13.595825</ele>
                <time>2006-12-16T06:49:17Z</time>
            </trkpt>
            <trkpt lon="101.094703" lat="14.328536">
                <ele>13.115112</ele>
                <time>2006-12-16T06:49:21Z</time>
            </trkpt>
            <trkpt lon="101.094180" lat="14.327951">
                <ele>12.153809</ele>
                <time>2006-12-16T06:49:39Z</time>
            </trkpt>
            <trkpt lon="101.093640" lat="14.327162">
                <ele>11.192505</ele>
                <time>2006-12-16T06:50:01Z</time>
            </trkpt>
            <trkpt lon="101.093387" lat="14.326733">
                <ele>9.750610</ele>
                <time>2006-12-16T06:50:15Z</time>
            </trkpt>
            <trkpt lon="101.093368" lat="14.326715">
                <ele>10.231201</ele>
                <time>2006-12-16T06:50:19Z</time>
            </trkpt>
            <trkpt lon="101.093327" lat="14.326720">
                <ele>10.711792</ele>
                <time>2006-12-16T06:50:24Z</time>
            </trkpt>
            <trkpt lon="101.093028" lat="14.327024">
                <ele>11.192505</ele>
                <time>2006-12-16T06:50:38Z</time>
            </trkpt>
            <trkpt lon="101.092356" lat="14.327657">
                <ele>11.192505</ele>
                <time>2006-12-16T06:51:00Z</time>
            </trkpt>
            <trkpt lon="101.092000" lat="14.327997">
                <ele>10.711792</ele>
                <time>2006-12-16T06:51:12Z</time>
            </trkpt>
            <trkpt lon="101.091593" lat="14.328233">
                <ele>9.269897</ele>
                <time>2006-12-16T06:51:27Z</time>
            </trkpt>
            <trkpt lon="101.091417" lat="14.328255">
                <ele>9.269897</ele>
                <time>2006-12-16T06:51:33Z</time>
            </trkpt>
            <trkpt lon="101.091307" lat="14.328104">
                <ele>8.789185</ele>
                <time>2006-12-16T06:51:39Z</time>
            </trkpt>
            <trkpt lon="101.091228" lat="14.328119">
                <ele>8.308594</ele>
                <time>2006-12-16T06:51:43Z</time>
            </trkpt>
            <trkpt lon="101.090821" lat="14.328495">
                <ele>9.750610</ele>
                <time>2006-12-16T06:52:01Z</time>
            </trkpt>
            <trkpt lon="101.090657" lat="14.328864">
                <ele>10.231201</ele>
                <time>2006-12-16T06:52:15Z</time>
            </trkpt>
            <trkpt lon="101.090666" lat="14.329011">
                <ele>10.711792</ele>
                <time>2006-12-16T06:52:21Z</time>
            </trkpt>
            <trkpt lon="101.090883" lat="14.329180">
                <ele>9.750610</ele>
                <time>2006-12-16T06:52:33Z</time>
            </trkpt>
            <trkpt lon="101.090865" lat="14.329500">
                <ele>10.231201</ele>
                <time>2006-12-16T06:52:48Z</time>
            </trkpt>
            <trkpt lon="101.090829" lat="14.329596">
                <ele>10.711792</ele>
                <time>2006-12-16T06:52:57Z</time>
            </trkpt>
            <trkpt lon="101.091005" lat="14.329949">
                <ele>10.711792</ele>
                <time>2006-12-16T06:53:11Z</time>
            </trkpt>
            <trkpt lon="101.091372" lat="14.330677">
                <ele>10.711792</ele>
                <time>2006-12-16T06:53:31Z</time>
            </trkpt>
            <trkpt lon="101.091606" lat="14.331415">
                <ele>12.634399</ele>
                <time>2006-12-16T06:53:49Z</time>
            </trkpt>
            <trkpt lon="101.091819" lat="14.332060">
                <ele>12.153809</ele>
                <time>2006-12-16T06:54:08Z</time>
            </trkpt>
            <trkpt lon="101.091884" lat="14.332265">
                <ele>11.673218</ele>
                <time>2006-12-16T06:54:13Z</time>
            </trkpt>
            <trkpt lon="101.091878" lat="14.332410">
                <ele>11.673218</ele>
                <time>2006-12-16T06:54:16Z</time>
            </trkpt>
            <trkpt lon="101.091909" lat="14.332618">
                <ele>11.673218</ele>
                <time>2006-12-16T06:54:20Z</time>
            </trkpt>
            <trkpt lon="101.092259" lat="14.333605">
                <ele>14.076416</ele>
                <time>2006-12-16T06:54:42Z</time>
            </trkpt>
            <trkpt lon="101.092238" lat="14.334043">
                <ele>13.115112</ele>
                <time>2006-12-16T06:54:52Z</time>
            </trkpt>
            <trkpt lon="101.092804" lat="14.334440">
                <ele>13.115112</ele>
                <time>2006-12-16T06:55:07Z</time>
            </trkpt>
            <trkpt lon="101.094084" lat="14.334770">
                <ele>13.595825</ele>
                <time>2006-12-16T06:55:35Z</time>
            </trkpt>
            <trkpt lon="101.094791" lat="14.334933">
                <ele>13.595825</ele>
                <time>2006-12-16T06:55:52Z</time>
            </trkpt>
            <trkpt lon="101.095456" lat="14.335175">
                <ele>13.115112</ele>
                <time>2006-12-16T06:56:10Z</time>
            </trkpt>
            <trkpt lon="101.095578" lat="14.336143">
                <ele>12.153809</ele>
                <time>2006-12-16T06:56:29Z</time>
            </trkpt>
            <trkpt lon="101.095609" lat="14.336320">
                <ele>11.673218</ele>
                <time>2006-12-16T06:56:32Z</time>
            </trkpt>
            <trkpt lon="101.096305" lat="14.337915">
                <ele>13.115112</ele>
                <time>2006-12-16T06:57:05Z</time>
            </trkpt>
            <trkpt lon="101.096120" lat="14.338058">
                <ele>12.634399</ele>
                <time>2006-12-16T06:57:12Z</time>
            </trkpt>
            <trkpt lon="101.095695" lat="14.338229">
                <ele>13.595825</ele>
                <time>2006-12-16T06:57:23Z</time>
            </trkpt>
            <trkpt lon="101.095692" lat="14.338400">
                <ele>13.595825</ele>
                <time>2006-12-16T06:57:28Z</time>
            </trkpt>
            <trkpt lon="101.096263" lat="14.339198">
                <ele>11.673218</ele>
                <time>2006-12-16T06:57:50Z</time>
            </trkpt>
            <trkpt lon="101.096843" lat="14.339993">
                <ele>11.673218</ele>
                <time>2006-12-16T06:58:11Z</time>
            </trkpt>
            <trkpt lon="101.097304" lat="14.340609">
                <ele>11.673218</ele>
                <time>2006-12-16T06:58:28Z</time>
            </trkpt>
            <trkpt lon="101.097416" lat="14.340795">
                <ele>11.192505</ele>
                <time>2006-12-16T06:58:33Z</time>
            </trkpt>
            <trkpt lon="101.097699" lat="14.341399">
                <ele>10.231201</ele>
                <time>2006-12-16T06:58:49Z</time>
            </trkpt>
            <trkpt lon="101.098074" lat="14.342219">
                <ele>11.673218</ele>
                <time>2006-12-16T06:59:10Z</time>
            </trkpt>
            <trkpt lon="101.098426" lat="14.342954">
                <ele>12.153809</ele>
                <time>2006-12-16T06:59:29Z</time>
            </trkpt>
            <trkpt lon="101.098422" lat="14.343415">
                <ele>12.153809</ele>
                <time>2006-12-16T06:59:41Z</time>
            </trkpt>
            <trkpt lon="101.098465" lat="14.343770">
                <ele>12.634399</ele>
                <time>2006-12-16T06:59:49Z</time>
            </trkpt>
            <trkpt lon="101.098724" lat="14.344185">
                <ele>11.673218</ele>
                <time>2006-12-16T06:59:58Z</time>
            </trkpt>
            <trkpt lon="101.098860" lat="14.344287">
                <ele>12.153809</ele>
                <time>2006-12-16T07:00:02Z</time>
            </trkpt>
            <trkpt lon="101.099142" lat="14.344490">
                <ele>11.192505</ele>
                <time>2006-12-16T07:00:10Z</time>
            </trkpt>
            <trkpt lon="101.099239" lat="14.344604">
                <ele>10.711792</ele>
                <time>2006-12-16T07:00:21Z</time>
            </trkpt>
            <trkpt lon="101.099258" lat="14.344642">
                <ele>13.115112</ele>
                <time>2006-12-16T07:00:40Z</time>
            </trkpt>
            <trkpt lon="101.099439" lat="14.344902">
                <ele>12.634399</ele>
                <time>2006-12-16T07:00:55Z</time>
            </trkpt>
            <trkpt lon="101.099533" lat="14.345048">
                <ele>13.115112</ele>
                <time>2006-12-16T07:01:09Z</time>
            </trkpt>
            <trkpt lon="101.099594" lat="14.345079">
                <ele>14.076416</ele>
                <time>2006-12-16T07:01:47Z</time>
            </trkpt>
            <trkpt lon="101.099590" lat="14.345080">
                <ele>18.883057</ele>
                <time>2006-12-16T07:02:27Z</time>
            </trkpt>
            <trkpt lon="101.099593" lat="14.345094">
                <ele>17.441162</ele>
                <time>2006-12-16T07:03:43Z</time>
            </trkpt>
            <trkpt lon="101.099600" lat="14.345106">
                <ele>17.921753</ele>
                <time>2006-12-16T07:04:11Z</time>
            </trkpt>
            <trkpt lon="101.099628" lat="14.345130">
                <ele>17.921753</ele>
                <time>2006-12-16T07:04:39Z</time>
            </trkpt>
            <trkpt lon="101.099636" lat="14.345156">
                <ele>17.921753</ele>
                <time>2006-12-16T07:04:54Z</time>
            </trkpt>
            <trkpt lon="101.099283" lat="14.345326">
                <ele>16.479736</ele>
                <time>2006-12-16T07:05:10Z</time>
            </trkpt>
            <trkpt lon="101.098923" lat="14.345545">
                <ele>15.999023</ele>
                <time>2006-12-16T07:05:21Z</time>
            </trkpt>
            <trkpt lon="101.098840" lat="14.345649">
                <ele>15.999023</ele>
                <time>2006-12-16T07:05:24Z</time>
            </trkpt>
            <trkpt lon="101.098214" lat="14.346044">
                <ele>15.999023</ele>
                <time>2006-12-16T07:05:39Z</time>
            </trkpt>
            <trkpt lon="101.097896" lat="14.346198">
                <ele>15.999023</ele>
                <time>2006-12-16T07:05:47Z</time>
            </trkpt>
            <trkpt lon="101.097895" lat="14.346326">
                <ele>15.518433</ele>
                <time>2006-12-16T07:05:51Z</time>
            </trkpt>
            <trkpt lon="101.098183" lat="14.347200">
                <ele>15.999023</ele>
                <time>2006-12-16T07:06:11Z</time>
            </trkpt>
            <trkpt lon="101.098433" lat="14.348163">
                <ele>15.518433</ele>
                <time>2006-12-16T07:06:32Z</time>
            </trkpt>
            <trkpt lon="101.098454" lat="14.348251">
                <ele>15.518433</ele>
                <time>2006-12-16T07:06:34Z</time>
            </trkpt>
            <trkpt lon="101.098489" lat="14.348566">
                <ele>15.999023</ele>
                <time>2006-12-16T07:06:42Z</time>
            </trkpt>
            <trkpt lon="101.098601" lat="14.349304">
                <ele>15.037720</ele>
                <time>2006-12-16T07:06:59Z</time>
            </trkpt>
            <trkpt lon="101.098664" lat="14.350034">
                <ele>15.518433</ele>
                <time>2006-12-16T07:07:15Z</time>
            </trkpt>
            <trkpt lon="101.098467" lat="14.350261">
                <ele>14.557007</ele>
                <time>2006-12-16T07:07:23Z</time>
            </trkpt>
            <trkpt lon="101.098460" lat="14.350426">
                <ele>15.518433</ele>
                <time>2006-12-16T07:07:29Z</time>
            </trkpt>
            <trkpt lon="101.098462" lat="14.350469">
                <ele>15.999023</ele>
                <time>2006-12-16T07:07:31Z</time>
            </trkpt>
            <trkpt lon="101.098346" lat="14.350514">
                <ele>15.037720</ele>
                <time>2006-12-16T07:07:42Z</time>
            </trkpt>
            <trkpt lon="101.098291" lat="14.350520">
                <ele>15.518433</ele>
                <time>2006-12-16T07:07:46Z</time>
            </trkpt>
            <trkpt lon="101.097951" lat="14.350581">
                <ele>15.518433</ele>
                <time>2006-12-16T07:08:02Z</time>
            </trkpt>
            <trkpt lon="101.097639" lat="14.350667">
                <ele>15.999023</ele>
                <time>2006-12-16T07:08:17Z</time>
            </trkpt>
            <trkpt lon="101.097386" lat="14.350734">
                <ele>15.037720</ele>
                <time>2006-12-16T07:08:31Z</time>
            </trkpt>
            <trkpt lon="101.097237" lat="14.350754">
                <ele>14.557007</ele>
                <time>2006-12-16T07:08:38Z</time>
            </trkpt>
            <trkpt lon="101.097191" lat="14.350721">
                <ele>14.557007</ele>
                <time>2006-12-16T07:08:42Z</time>
            </trkpt>
            <trkpt lon="101.097146" lat="14.350667">
                <ele>14.076416</ele>
                <time>2006-12-16T07:08:47Z</time>
            </trkpt>
            <trkpt lon="101.097123" lat="14.350632">
                <ele>15.037720</ele>
                <time>2006-12-16T07:08:59Z</time>
            </trkpt>
            <trkpt lon="101.097038" lat="14.350622">
                <ele>16.479736</ele>
                <time>2006-12-16T07:09:13Z</time>
            </trkpt>
            <trkpt lon="101.096953" lat="14.350650">
                <ele>17.441162</ele>
                <time>2006-12-16T07:09:27Z</time>
            </trkpt>
            <trkpt lon="101.096939" lat="14.350672">
                <ele>17.921753</ele>
                <time>2006-12-16T07:09:30Z</time>
            </trkpt>
            <trkpt lon="101.096953" lat="14.350767">
                <ele>15.999023</ele>
                <time>2006-12-16T07:09:38Z</time>
            </trkpt>
            <trkpt lon="101.096894" lat="14.350807">
                <ele>16.479736</ele>
                <time>2006-12-16T07:09:52Z</time>
            </trkpt>
            <trkpt lon="101.096848" lat="14.350831">
                <ele>17.441162</ele>
                <time>2006-12-16T07:10:04Z</time>
            </trkpt>
            <trkpt lon="101.096800" lat="14.350861">
                <ele>17.441162</ele>
                <time>2006-12-16T07:10:20Z</time>
            </trkpt>
            <trkpt lon="101.096763" lat="14.350871">
                <ele>16.960449</ele>
                <time>2006-12-16T07:10:37Z</time>
            </trkpt>
            <trkpt lon="101.096686" lat="14.350919">
                <ele>16.479736</ele>
                <time>2006-12-16T07:10:53Z</time>
            </trkpt>
            <trkpt lon="101.096630" lat="14.350940">
                <ele>15.999023</ele>
                <time>2006-12-16T07:11:07Z</time>
            </trkpt>
            <trkpt lon="101.096554" lat="14.350990">
                <ele>15.999023</ele>
                <time>2006-12-16T07:11:19Z</time>
            </trkpt>
            <trkpt lon="101.096491" lat="14.351067">
                <ele>15.999023</ele>
                <time>2006-12-16T07:11:32Z</time>
            </trkpt>
            <trkpt lon="101.096503" lat="14.351091">
                <ele>15.999023</ele>
                <time>2006-12-16T07:11:35Z</time>
            </trkpt>
            <trkpt lon="101.096543" lat="14.351191">
                <ele>15.518433</ele>
                <time>2006-12-16T07:11:46Z</time>
            </trkpt>
            <trkpt lon="101.096514" lat="14.351217">
                <ele>15.518433</ele>
                <time>2006-12-16T07:11:50Z</time>
            </trkpt>
            <trkpt lon="101.096272" lat="14.351328">
                <ele>15.518433</ele>
                <time>2006-12-16T07:12:11Z</time>
            </trkpt>
            <trkpt lon="101.096114" lat="14.351402">
                <ele>15.999023</ele>
                <time>2006-12-16T07:12:30Z</time>
            </trkpt>
            <trkpt lon="101.095923" lat="14.351484">
                <ele>15.518433</ele>
                <time>2006-12-16T07:12:43Z</time>
            </trkpt>
            <trkpt lon="101.095681" lat="14.351577">
                <ele>15.999023</ele>
                <time>2006-12-16T07:13:01Z</time>
            </trkpt>
            <trkpt lon="101.095527" lat="14.351607">
                <ele>16.960449</ele>
                <time>2006-12-16T07:13:19Z</time>
            </trkpt>
            <trkpt lon="101.095376" lat="14.351592">
                <ele>15.999023</ele>
                <time>2006-12-16T07:13:33Z</time>
            </trkpt>
            <trkpt lon="101.095046" lat="14.351590">
                <ele>15.518433</ele>
                <time>2006-12-16T07:13:52Z</time>
            </trkpt>
            <trkpt lon="101.094821" lat="14.351587">
                <ele>15.999023</ele>
                <time>2006-12-16T07:14:08Z</time>
            </trkpt>
            <trkpt lon="101.094807" lat="14.351625">
                <ele>15.999023</ele>
                <time>2006-12-16T07:14:16Z</time>
            </trkpt>
            <trkpt lon="101.094811" lat="14.351823">
                <ele>15.518433</ele>
                <time>2006-12-16T07:14:33Z</time>
            </trkpt>
            <trkpt lon="101.094795" lat="14.351833">
                <ele>15.999023</ele>
                <time>2006-12-16T07:14:35Z</time>
            </trkpt>
            <trkpt lon="101.094669" lat="14.351825">
                <ele>16.479736</ele>
                <time>2006-12-16T07:14:50Z</time>
            </trkpt>
            <trkpt lon="101.094339" lat="14.351837">
                <ele>16.479736</ele>
                <time>2006-12-16T07:15:07Z</time>
            </trkpt>
            <trkpt lon="101.093988" lat="14.351832">
                <ele>16.479736</ele>
                <time>2006-12-16T07:15:25Z</time>
            </trkpt>
            <trkpt lon="101.093842" lat="14.351835">
                <ele>16.479736</ele>
                <time>2006-12-16T07:15:38Z</time>
            </trkpt>
            <trkpt lon="101.093837" lat="14.351856">
                <ele>16.479736</ele>
                <time>2006-12-16T07:15:42Z</time>
            </trkpt>
            <trkpt lon="101.093842" lat="14.351899">
                <ele>15.999023</ele>
                <time>2006-12-16T07:15:46Z</time>
            </trkpt>
            <trkpt lon="101.093856" lat="14.351976">
                <ele>15.999023</ele>
                <time>2006-12-16T07:15:53Z</time>
            </trkpt>
            <trkpt lon="101.093802" lat="14.352007">
                <ele>15.999023</ele>
                <time>2006-12-16T07:16:04Z</time>
            </trkpt>
            <trkpt lon="101.093492" lat="14.352003">
                <ele>15.999023</ele>
                <time>2006-12-16T07:16:22Z</time>
            </trkpt>
            <trkpt lon="101.093292" lat="14.352002">
                <ele>16.479736</ele>
                <time>2006-12-16T07:16:37Z</time>
            </trkpt>
            <trkpt lon="101.093212" lat="14.352002">
                <ele>16.960449</ele>
                <time>2006-12-16T07:16:50Z</time>
            </trkpt>
            <trkpt lon="101.093030" lat="14.351970">
                <ele>15.999023</ele>
                <time>2006-12-16T07:17:01Z</time>
            </trkpt>
            <trkpt lon="101.092906" lat="14.351981">
                <ele>16.479736</ele>
                <time>2006-12-16T07:17:13Z</time>
            </trkpt>
            <trkpt lon="101.092843" lat="14.352012">
                <ele>17.921753</ele>
                <time>2006-12-16T07:17:27Z</time>
            </trkpt>
            <trkpt lon="101.092853" lat="14.352040">
                <ele>17.921753</ele>
                <time>2006-12-16T07:17:31Z</time>
            </trkpt>
            <trkpt lon="101.092958" lat="14.352328">
                <ele>15.999023</ele>
                <time>2006-12-16T07:17:45Z</time>
            </trkpt>
            <trkpt lon="101.093226" lat="14.352795">
                <ele>15.037720</ele>
                <time>2006-12-16T07:18:02Z</time>
            </trkpt>
            <trkpt lon="101.093496" lat="14.353230">
                <ele>14.557007</ele>
                <time>2006-12-16T07:18:17Z</time>
            </trkpt>
            <trkpt lon="101.093784" lat="14.353690">
                <ele>13.115112</ele>
                <time>2006-12-16T07:18:32Z</time>
            </trkpt>
            <trkpt lon="101.094102" lat="14.354207">
                <ele>14.557007</ele>
                <time>2006-12-16T07:18:49Z</time>
            </trkpt>
            <trkpt lon="101.094488" lat="14.354851">
                <ele>15.999023</ele>
                <time>2006-12-16T07:19:08Z</time>
            </trkpt>
            <trkpt lon="101.094916" lat="14.355558">
                <ele>15.518433</ele>
                <time>2006-12-16T07:19:28Z</time>
            </trkpt>
            <trkpt lon="101.095021" lat="14.355742">
                <ele>15.518433</ele>
                <time>2006-12-16T07:19:33Z</time>
            </trkpt>
            <trkpt lon="101.095344" lat="14.356328">
                <ele>16.479736</ele>
                <time>2006-12-16T07:19:49Z</time>
            </trkpt>
            <trkpt lon="101.095734" lat="14.356994">
                <ele>18.402344</ele>
                <time>2006-12-16T07:20:08Z</time>
            </trkpt>
            <trkpt lon="101.096192" lat="14.357653">
                <ele>18.402344</ele>
                <time>2006-12-16T07:20:27Z</time>
            </trkpt>
            <trkpt lon="101.096405" lat="14.357613">
                <ele>18.402344</ele>
                <time>2006-12-16T07:20:32Z</time>
            </trkpt>
            <trkpt lon="101.097412" lat="14.357318">
                <ele>19.363770</ele>
                <time>2006-12-16T07:20:53Z</time>
            </trkpt>
            <trkpt lon="101.098048" lat="14.357079">
                <ele>19.363770</ele>
                <time>2006-12-16T07:21:07Z</time>
            </trkpt>
            <trkpt lon="101.098810" lat="14.356774">
                <ele>18.883057</ele>
                <time>2006-12-16T07:21:26Z</time>
            </trkpt>
            <trkpt lon="101.099741" lat="14.356453">
                <ele>16.960449</ele>
                <time>2006-12-16T07:21:46Z</time>
            </trkpt>
            <trkpt lon="101.099828" lat="14.356425">
                <ele>17.441162</ele>
                <time>2006-12-16T07:21:48Z</time>
            </trkpt>
            <trkpt lon="101.100001" lat="14.356384">
                <ele>17.441162</ele>
                <time>2006-12-16T07:21:52Z</time>
            </trkpt>
            <trkpt lon="101.100093" lat="14.356210">
                <ele>17.441162</ele>
                <time>2006-12-16T07:21:57Z</time>
            </trkpt>
            <trkpt lon="101.099987" lat="14.355709">
                <ele>16.479736</ele>
                <time>2006-12-16T07:22:08Z</time>
            </trkpt>
            <trkpt lon="101.100088" lat="14.355565">
                <ele>15.999023</ele>
                <time>2006-12-16T07:22:12Z</time>
            </trkpt>
            <trkpt lon="101.100787" lat="14.355510">
                <ele>16.479736</ele>
                <time>2006-12-16T07:22:27Z</time>
            </trkpt>
            <trkpt lon="101.101831" lat="14.355441">
                <ele>15.518433</ele>
                <time>2006-12-16T07:22:49Z</time>
            </trkpt>
            <trkpt lon="101.102860" lat="14.355366">
                <ele>15.518433</ele>
                <time>2006-12-16T07:23:11Z</time>
            </trkpt>
            <trkpt lon="101.103823" lat="14.355289">
                <ele>14.076416</ele>
                <time>2006-12-16T07:23:32Z</time>
            </trkpt>
            <trkpt lon="101.104465" lat="14.355106">
                <ele>14.076416</ele>
                <time>2006-12-16T07:23:47Z</time>
            </trkpt>
            <trkpt lon="101.104888" lat="14.354970">
                <ele>14.076416</ele>
                <time>2006-12-16T07:23:57Z</time>
            </trkpt>
            <trkpt lon="101.105363" lat="14.354889">
                <ele>14.557007</ele>
                <time>2006-12-16T07:24:09Z</time>
            </trkpt>
            <trkpt lon="101.105398" lat="14.354997">
                <ele>14.076416</ele>
                <time>2006-12-16T07:24:13Z</time>
            </trkpt>
            <trkpt lon="101.105419" lat="14.355083">
                <ele>14.076416</ele>
                <time>2006-12-16T07:24:23Z</time>
            </trkpt>
            <trkpt lon="101.105394" lat="14.355121">
                <ele>15.518433</ele>
                <time>2006-12-16T07:24:33Z</time>
            </trkpt>
            <trkpt lon="101.105394" lat="14.355130">
                <ele>15.518433</ele>
                <time>2006-12-16T07:24:34Z</time>
            </trkpt>
            <trkpt lon="101.105382" lat="14.355502">
                <ele>15.999023</ele>
                <time>2006-12-16T07:24:47Z</time>
            </trkpt>
            <trkpt lon="101.105370" lat="14.356309">
                <ele>16.479736</ele>
                <time>2006-12-16T07:25:06Z</time>
            </trkpt>
            <trkpt lon="101.105344" lat="14.357162">
                <ele>17.441162</ele>
                <time>2006-12-16T07:25:26Z</time>
            </trkpt>
            <trkpt lon="101.105623" lat="14.358080">
                <ele>16.479736</ele>
                <time>2006-12-16T07:25:49Z</time>
            </trkpt>
            <trkpt lon="101.105771" lat="14.358598">
                <ele>15.518433</ele>
                <time>2006-12-16T07:26:05Z</time>
            </trkpt>
            <trkpt lon="101.105975" lat="14.359113">
                <ele>15.037720</ele>
                <time>2006-12-16T07:26:23Z</time>
            </trkpt>
            <trkpt lon="101.106068" lat="14.359519">
                <ele>15.037720</ele>
                <time>2006-12-16T07:26:38Z</time>
            </trkpt>
            <trkpt lon="101.106099" lat="14.359600">
                <ele>15.518433</ele>
                <time>2006-12-16T07:26:50Z</time>
            </trkpt>
            <trkpt lon="101.106111" lat="14.359660">
                <ele>15.518433</ele>
                <time>2006-12-16T07:27:03Z</time>
            </trkpt>
            <trkpt lon="101.106289" lat="14.359851">
                <ele>14.557007</ele>
                <time>2006-12-16T07:27:17Z</time>
            </trkpt>
            <trkpt lon="101.106461" lat="14.360210">
                <ele>14.076416</ele>
                <time>2006-12-16T07:27:33Z</time>
            </trkpt>
            <trkpt lon="101.106602" lat="14.360557">
                <ele>14.076416</ele>
                <time>2006-12-16T07:27:47Z</time>
            </trkpt>
            <trkpt lon="101.106719" lat="14.360810">
                <ele>14.557007</ele>
                <time>2006-12-16T07:28:02Z</time>
            </trkpt>
            <trkpt lon="101.106729" lat="14.360844">
                <ele>17.441162</ele>
                <time>2006-12-16T07:28:18Z</time>
            </trkpt>
            <trkpt lon="101.106754" lat="14.360880">
                <ele>16.960449</ele>
                <time>2006-12-16T07:28:24Z</time>
            </trkpt>
            <trkpt lon="101.106760" lat="14.360902">
                <ele>16.479736</ele>
                <time>2006-12-16T07:28:26Z</time>
            </trkpt>
            <trkpt lon="101.106857" lat="14.360977">
                <ele>16.960449</ele>
                <time>2006-12-16T07:28:37Z</time>
            </trkpt>
            <trkpt lon="101.107331" lat="14.360745">
                <ele>16.960449</ele>
                <time>2006-12-16T07:28:52Z</time>
            </trkpt>
            <trkpt lon="101.107465" lat="14.360728">
                <ele>17.441162</ele>
                <time>2006-12-16T07:28:56Z</time>
            </trkpt>
            <trkpt lon="101.107564" lat="14.360873">
                <ele>16.960449</ele>
                <time>2006-12-16T07:29:01Z</time>
            </trkpt>
            <trkpt lon="101.107748" lat="14.361168">
                <ele>15.999023</ele>
                <time>2006-12-16T07:29:10Z</time>
            </trkpt>
            <trkpt lon="101.108124" lat="14.361038">
                <ele>15.037720</ele>
                <time>2006-12-16T07:29:20Z</time>
            </trkpt>
            <trkpt lon="101.109025" lat="14.360609">
                <ele>13.115112</ele>
                <time>2006-12-16T07:29:42Z</time>
            </trkpt>
            <trkpt lon="101.109604" lat="14.360413">
                <ele>15.518433</ele>
                <time>2006-12-16T07:29:57Z</time>
            </trkpt>
            <trkpt lon="101.109666" lat="14.360388">
                <ele>15.518433</ele>
                <time>2006-12-16T07:29:59Z</time>
            </trkpt>
            <trkpt lon="101.109723" lat="14.360463">
                <ele>15.037720</ele>
                <time>2006-12-16T07:30:05Z</time>
            </trkpt>
            <trkpt lon="101.109766" lat="14.360945">
                <ele>15.999023</ele>
                <time>2006-12-16T07:30:19Z</time>
            </trkpt>
            <trkpt lon="101.109819" lat="14.361093">
                <ele>16.960449</ele>
                <time>2006-12-16T07:30:23Z</time>
            </trkpt>
            <trkpt lon="101.109618" lat="14.361399">
                <ele>17.921753</ele>
                <time>2006-12-16T07:30:31Z</time>
            </trkpt>
            <trkpt lon="101.109572" lat="14.361408">
                <ele>17.441162</ele>
                <time>2006-12-16T07:30:32Z</time>
            </trkpt>
            <trkpt lon="101.109264" lat="14.361432">
                <ele>17.441162</ele>
                <time>2006-12-16T07:30:39Z</time>
            </trkpt>
            <trkpt lon="101.109121" lat="14.361561">
                <ele>16.960449</ele>
                <time>2006-12-16T07:30:43Z</time>
            </trkpt>
            <trkpt lon="101.108859" lat="14.361623">
                <ele>16.960449</ele>
                <time>2006-12-16T07:30:49Z</time>
            </trkpt>
            <trkpt lon="101.108775" lat="14.361603">
                <ele>16.960449</ele>
                <time>2006-12-16T07:30:51Z</time>
            </trkpt>
            <trkpt lon="101.108581" lat="14.361695">
                <ele>15.999023</ele>
                <time>2006-12-16T07:30:57Z</time>
            </trkpt>
            <trkpt lon="101.108539" lat="14.362137">
                <ele>16.960449</ele>
                <time>2006-12-16T07:31:08Z</time>
            </trkpt>
            <trkpt lon="101.108520" lat="14.362193">
                <ele>18.402344</ele>
                <time>2006-12-16T07:31:19Z</time>
            </trkpt>
            <trkpt lon="101.108517" lat="14.362194">
                <ele>21.286377</ele>
                <time>2006-12-16T07:31:25Z</time>
            </trkpt>
            <trkpt lon="101.108564" lat="14.361965">
                <ele>21.766968</ele>
                <time>2006-12-16T07:31:43Z</time>
            </trkpt>
            <trkpt lon="101.108539" lat="14.361930">
                <ele>21.766968</ele>
                <time>2006-12-16T07:31:50Z</time>
            </trkpt>
            <trkpt lon="101.108302" lat="14.361909">
                <ele>20.324951</ele>
                <time>2006-12-16T07:32:05Z</time>
            </trkpt>
            <trkpt lon="101.108181" lat="14.362106">
                <ele>22.247559</ele>
                <time>2006-12-16T07:32:20Z</time>
            </trkpt>
            <trkpt lon="101.108213" lat="14.362532">
                <ele>23.689575</ele>
                <time>2006-12-16T07:32:36Z</time>
            </trkpt>
            <trkpt lon="101.108296" lat="14.362754">
                <ele>20.805664</ele>
                <time>2006-12-16T07:32:52Z</time>
            </trkpt>
            <trkpt lon="101.108368" lat="14.362837">
                <ele>19.844360</ele>
                <time>2006-12-16T07:32:59Z</time>
            </trkpt>
            <trkpt lon="101.108393" lat="14.362950">
                <ele>18.402344</ele>
                <time>2006-12-16T07:33:04Z</time>
            </trkpt>
            <trkpt lon="101.108429" lat="14.363255">
                <ele>18.402344</ele>
                <time>2006-12-16T07:33:21Z</time>
            </trkpt>
            <trkpt lon="101.108423" lat="14.363585">
                <ele>19.844360</ele>
                <time>2006-12-16T07:33:39Z</time>
            </trkpt>
            <trkpt lon="101.108322" lat="14.363827">
                <ele>20.324951</ele>
                <time>2006-12-16T07:33:52Z</time>
            </trkpt>
            <trkpt lon="101.108355" lat="14.363920">
                <ele>18.402344</ele>
                <time>2006-12-16T07:33:58Z</time>
            </trkpt>
            <trkpt lon="101.108313" lat="14.364000">
                <ele>19.363770</ele>
                <time>2006-12-16T07:34:04Z</time>
            </trkpt>
            <trkpt lon="101.107986" lat="14.364115">
                <ele>20.805664</ele>
                <time>2006-12-16T07:34:20Z</time>
            </trkpt>
            <trkpt lon="101.107882" lat="14.364147">
                <ele>19.844360</ele>
                <time>2006-12-16T07:34:32Z</time>
            </trkpt>
            <trkpt lon="101.107748" lat="14.364192">
                <ele>20.805664</ele>
                <time>2006-12-16T07:35:05Z</time>
            </trkpt>
            <trkpt lon="101.107653" lat="14.364218">
                <ele>20.805664</ele>
                <time>2006-12-16T07:35:19Z</time>
            </trkpt>
            <trkpt lon="101.107554" lat="14.364251">
                <ele>23.208984</ele>
                <time>2006-12-16T07:35:32Z</time>
            </trkpt>
            <trkpt lon="101.107445" lat="14.364280">
                <ele>21.286377</ele>
                <time>2006-12-16T07:35:45Z</time>
            </trkpt>
            <trkpt lon="101.107249" lat="14.364341">
                <ele>22.247559</ele>
                <time>2006-12-16T07:35:57Z</time>
            </trkpt>
            <trkpt lon="101.106775" lat="14.364482">
                <ele>21.286377</ele>
                <time>2006-12-16T07:36:16Z</time>
            </trkpt>
            <trkpt lon="101.106603" lat="14.364530">
                <ele>20.805664</ele>
                <time>2006-12-16T07:36:28Z</time>
            </trkpt>
            <trkpt lon="101.106586" lat="14.364528">
                <ele>21.286377</ele>
                <time>2006-12-16T07:36:38Z</time>
            </trkpt>
            <trkpt lon="101.106081" lat="14.364679">
                <ele>21.766968</ele>
                <time>2006-12-16T07:36:57Z</time>
            </trkpt>
            <trkpt lon="101.105979" lat="14.364704">
                <ele>20.805664</ele>
                <time>2006-12-16T07:37:02Z</time>
            </trkpt>
            <trkpt lon="101.105962" lat="14.364988">
                <ele>21.286377</ele>
                <time>2006-12-16T07:37:16Z</time>
            </trkpt>
            <trkpt lon="101.106042" lat="14.365577">
                <ele>16.479736</ele>
                <time>2006-12-16T07:37:33Z</time>
            </trkpt>
            <trkpt lon="101.106041" lat="14.365646">
                <ele>15.999023</ele>
                <time>2006-12-16T07:37:35Z</time>
            </trkpt>
            <trkpt lon="101.106073" lat="14.365765">
                <ele>16.479736</ele>
                <time>2006-12-16T07:37:44Z</time>
            </trkpt>
            <trkpt lon="101.106098" lat="14.365783">
                <ele>16.960449</ele>
                <time>2006-12-16T07:37:45Z</time>
            </trkpt>
            <trkpt lon="101.106765" lat="14.366180">
                <ele>17.441162</ele>
                <time>2006-12-16T07:38:05Z</time>
            </trkpt>
            <trkpt lon="101.106959" lat="14.366279">
                <ele>17.441162</ele>
                <time>2006-12-16T07:38:10Z</time>
            </trkpt>
            <trkpt lon="101.107175" lat="14.366428">
                <ele>18.402344</ele>
                <time>2006-12-16T07:38:16Z</time>
            </trkpt>
            <trkpt lon="101.107799" lat="14.366947">
                <ele>18.402344</ele>
                <time>2006-12-16T07:38:34Z</time>
            </trkpt>
            <trkpt lon="101.107895" lat="14.367037">
                <ele>18.883057</ele>
                <time>2006-12-16T07:38:37Z</time>
            </trkpt>
            <trkpt lon="101.108406" lat="14.367815">
                <ele>16.960449</ele>
                <time>2006-12-16T07:38:58Z</time>
            </trkpt>
            <trkpt lon="101.108902" lat="14.368640">
                <ele>13.115112</ele>
                <time>2006-12-16T07:39:18Z</time>
            </trkpt>
            <trkpt lon="101.109381" lat="14.369444">
                <ele>18.402344</ele>
                <time>2006-12-16T07:39:41Z</time>
            </trkpt>
            <trkpt lon="101.109570" lat="14.370045">
                <ele>17.921753</ele>
                <time>2006-12-16T07:39:56Z</time>
            </trkpt>
            <trkpt lon="101.109715" lat="14.370080">
                <ele>17.441162</ele>
                <time>2006-12-16T07:40:00Z</time>
            </trkpt>
            <trkpt lon="101.110702" lat="14.369816">
                <ele>18.883057</ele>
                <time>2006-12-16T07:40:22Z</time>
            </trkpt>
            <trkpt lon="101.111572" lat="14.369614">
                <ele>20.324951</ele>
                <time>2006-12-16T07:40:42Z</time>
            </trkpt>
            <trkpt lon="101.112588" lat="14.369370">
                <ele>21.286377</ele>
                <time>2006-12-16T07:41:05Z</time>
            </trkpt>
            <trkpt lon="101.113090" lat="14.369282">
                <ele>20.805664</ele>
                <time>2006-12-16T07:41:15Z</time>
            </trkpt>
            <trkpt lon="101.113264" lat="14.369252">
                <ele>20.805664</ele>
                <time>2006-12-16T07:41:19Z</time>
            </trkpt>
            <trkpt lon="101.113821" lat="14.369323">
                <ele>21.286377</ele>
                <time>2006-12-16T07:41:33Z</time>
            </trkpt>
            <trkpt lon="101.113929" lat="14.369346">
                <ele>21.286377</ele>
                <time>2006-12-16T07:41:36Z</time>
            </trkpt>
            <trkpt lon="101.113969" lat="14.369443">
                <ele>20.324951</ele>
                <time>2006-12-16T07:41:41Z</time>
            </trkpt>
            <trkpt lon="101.113885" lat="14.369965">
                <ele>22.728271</ele>
                <time>2006-12-16T07:41:57Z</time>
            </trkpt>
            <trkpt lon="101.113909" lat="14.370029">
                <ele>23.208984</ele>
                <time>2006-12-16T07:41:59Z</time>
            </trkpt>
            <trkpt lon="101.114474" lat="14.370378">
                <ele>22.247559</ele>
                <time>2006-12-16T07:42:16Z</time>
            </trkpt>
            <trkpt lon="101.115033" lat="14.370578">
                <ele>21.286377</ele>
                <time>2006-12-16T07:42:33Z</time>
            </trkpt>
            <trkpt lon="101.115563" lat="14.370769">
                <ele>20.805664</ele>
                <time>2006-12-16T07:42:48Z</time>
            </trkpt>
            <trkpt lon="101.116214" lat="14.370988">
                <ele>20.324951</ele>
                <time>2006-12-16T07:43:06Z</time>
            </trkpt>
            <trkpt lon="101.116439" lat="14.371084">
                <ele>19.844360</ele>
                <time>2006-12-16T07:43:14Z</time>
            </trkpt>
            <trkpt lon="101.116425" lat="14.371215">
                <ele>20.324951</ele>
                <time>2006-12-16T07:43:19Z</time>
            </trkpt>
            <trkpt lon="101.116321" lat="14.371429">
                <ele>20.324951</ele>
                <time>2006-12-16T07:43:26Z</time>
            </trkpt>
            <trkpt lon="101.116399" lat="14.371516">
                <ele>21.766968</ele>
                <time>2006-12-16T07:43:31Z</time>
            </trkpt>
            <trkpt lon="101.116931" lat="14.371556">
                <ele>25.131714</ele>
                <time>2006-12-16T07:43:45Z</time>
            </trkpt>
            <trkpt lon="101.116975" lat="14.371548">
                <ele>25.131714</ele>
                <time>2006-12-16T07:43:46Z</time>
            </trkpt>
            <trkpt lon="101.117677" lat="14.371370">
                <ele>25.612305</ele>
                <time>2006-12-16T07:44:03Z</time>
            </trkpt>
            <trkpt lon="101.117863" lat="14.371280">
                <ele>25.131714</ele>
                <time>2006-12-16T07:44:09Z</time>
            </trkpt>
            <trkpt lon="101.118036" lat="14.371264">
                <ele>24.651001</ele>
                <time>2006-12-16T07:44:14Z</time>
            </trkpt>
            <trkpt lon="101.118156" lat="14.371714">
                <ele>25.131714</ele>
                <time>2006-12-16T07:44:26Z</time>
            </trkpt>
            <trkpt lon="101.118296" lat="14.372499">
                <ele>24.170288</ele>
                <time>2006-12-16T07:44:45Z</time>
            </trkpt>
            <trkpt lon="101.118309" lat="14.372565">
                <ele>24.170288</ele>
                <time>2006-12-16T07:44:47Z</time>
            </trkpt>
            <trkpt lon="101.118105" lat="14.372668">
                <ele>23.208984</ele>
                <time>2006-12-16T07:44:54Z</time>
            </trkpt>
            <trkpt lon="101.118104" lat="14.372782">
                <ele>22.728271</ele>
                <time>2006-12-16T07:44:58Z</time>
            </trkpt>
            <trkpt lon="101.118443" lat="14.373411">
                <ele>21.286377</ele>
                <time>2006-12-16T07:45:17Z</time>
            </trkpt>
            <trkpt lon="101.118654" lat="14.373613">
                <ele>19.844360</ele>
                <time>2006-12-16T07:45:24Z</time>
            </trkpt>
            <trkpt lon="101.119227" lat="14.374327">
                <ele>18.402344</ele>
                <time>2006-12-16T07:45:45Z</time>
            </trkpt>
            <trkpt lon="101.119520" lat="14.374661">
                <ele>18.883057</ele>
                <time>2006-12-16T07:45:56Z</time>
            </trkpt>
            <trkpt lon="101.119674" lat="14.374701">
                <ele>18.883057</ele>
                <time>2006-12-16T07:46:00Z</time>
            </trkpt>
            <trkpt lon="101.120321" lat="14.374480">
                <ele>20.805664</ele>
                <time>2006-12-16T07:46:17Z</time>
            </trkpt>
            <trkpt lon="101.120403" lat="14.374579">
                <ele>21.286377</ele>
                <time>2006-12-16T07:46:21Z</time>
            </trkpt>
            <trkpt lon="101.120755" lat="14.375273">
                <ele>17.921753</ele>
                <time>2006-12-16T07:46:42Z</time>
            </trkpt>
            <trkpt lon="101.120789" lat="14.375530">
                <ele>20.324951</ele>
                <time>2006-12-16T07:46:50Z</time>
            </trkpt>
            <trkpt lon="101.120839" lat="14.375644">
                <ele>21.766968</ele>
                <time>2006-12-16T07:46:54Z</time>
            </trkpt>
            <trkpt lon="101.121035" lat="14.375637">
                <ele>22.247559</ele>
                <time>2006-12-16T07:47:00Z</time>
            </trkpt>
            <trkpt lon="101.121760" lat="14.375437">
                <ele>24.651001</ele>
                <time>2006-12-16T07:47:18Z</time>
            </trkpt>
            <trkpt lon="101.122677" lat="14.375177">
                <ele>25.131714</ele>
                <time>2006-12-16T07:47:38Z</time>
            </trkpt>
            <trkpt lon="101.123562" lat="14.374899">
                <ele>23.689575</ele>
                <time>2006-12-16T07:47:57Z</time>
            </trkpt>
            <trkpt lon="101.123737" lat="14.374907">
                <ele>23.208984</ele>
                <time>2006-12-16T07:48:01Z</time>
            </trkpt>
            <trkpt lon="101.124062" lat="14.375007">
                <ele>23.208984</ele>
                <time>2006-12-16T07:48:09Z</time>
            </trkpt>
            <trkpt lon="101.124093" lat="14.375392">
                <ele>23.689575</ele>
                <time>2006-12-16T07:48:20Z</time>
            </trkpt>
            <trkpt lon="101.124182" lat="14.376264">
                <ele>24.651001</ele>
                <time>2006-12-16T07:48:39Z</time>
            </trkpt>
            <trkpt lon="101.124245" lat="14.376670">
                <ele>24.651001</ele>
                <time>2006-12-16T07:48:48Z</time>
            </trkpt>
            <trkpt lon="101.124505" lat="14.377782">
                <ele>23.208984</ele>
                <time>2006-12-16T07:49:12Z</time>
            </trkpt>
            <trkpt lon="101.124547" lat="14.377924">
                <ele>22.728271</ele>
                <time>2006-12-16T07:49:15Z</time>
            </trkpt>
            <trkpt lon="101.124804" lat="14.378829">
                <ele>20.324951</ele>
                <time>2006-12-16T07:49:35Z</time>
            </trkpt>
            <trkpt lon="101.125022" lat="14.379440">
                <ele>22.247559</ele>
                <time>2006-12-16T07:49:52Z</time>
            </trkpt>
            <trkpt lon="101.125268" lat="14.380095">
                <ele>21.286377</ele>
                <time>2006-12-16T07:50:11Z</time>
            </trkpt>
            <trkpt lon="101.125838" lat="14.381826">
                <ele>19.844360</ele>
                <time>2006-12-16T07:50:53Z</time>
            </trkpt>
            <trkpt lon="101.125883" lat="14.382005">
                <ele>21.286377</ele>
                <time>2006-12-16T07:50:57Z</time>
            </trkpt>
            <trkpt lon="101.125873" lat="14.382325">
                <ele>22.728271</ele>
                <time>2006-12-16T07:51:07Z</time>
            </trkpt>
            <trkpt lon="101.125799" lat="14.382371">
                <ele>23.208984</ele>
                <time>2006-12-16T07:51:12Z</time>
            </trkpt>
            <trkpt lon="101.125774" lat="14.382362">
                <ele>25.612305</ele>
                <time>2006-12-16T07:51:26Z</time>
            </trkpt>
            <trkpt lon="101.125753" lat="14.382344">
                <ele>24.651001</ele>
                <time>2006-12-16T07:53:23Z</time>
            </trkpt>
            <trkpt lon="101.125748" lat="14.382352">
                <ele>14.076416</ele>
                <time>2006-12-16T08:08:34Z</time>
            </trkpt>
            <trkpt lon="101.125730" lat="14.382384">
                <ele>20.805664</ele>
                <time>2006-12-16T08:09:42Z</time>
            </trkpt>
            <trkpt lon="101.125741" lat="14.382409">
                <ele>25.131714</ele>
                <time>2006-12-16T08:09:51Z</time>
            </trkpt>
            <trkpt lon="101.126124" lat="14.382576">
                <ele>21.766968</ele>
                <time>2006-12-16T08:10:05Z</time>
            </trkpt>
            <trkpt lon="101.126943" lat="14.382953">
                <ele>23.208984</ele>
                <time>2006-12-16T08:10:26Z</time>
            </trkpt>
            <trkpt lon="101.126967" lat="14.382969">
                <ele>22.247559</ele>
                <time>2006-12-16T08:10:27Z</time>
            </trkpt>
            <trkpt lon="101.127079" lat="14.382933">
                <ele>21.286377</ele>
                <time>2006-12-16T08:10:31Z</time>
            </trkpt>
            <trkpt lon="101.127625" lat="14.382567">
                <ele>22.728271</ele>
                <time>2006-12-16T08:10:49Z</time>
            </trkpt>
            <trkpt lon="101.127993" lat="14.382250">
                <ele>27.054321</ele>
                <time>2006-12-16T08:11:02Z</time>
            </trkpt>
            <trkpt lon="101.128395" lat="14.382249">
                <ele>25.612305</ele>
                <time>2006-12-16T08:11:13Z</time>
            </trkpt>
            <trkpt lon="101.128858" lat="14.382320">
                <ele>26.573608</ele>
                <time>2006-12-16T08:11:28Z</time>
            </trkpt>
            <trkpt lon="101.129559" lat="14.382107">
                <ele>29.938110</ele>
                <time>2006-12-16T08:12:06Z</time>
            </trkpt>
            <trkpt lon="101.129596" lat="14.382092">
                <ele>29.938110</ele>
                <time>2006-12-16T08:12:07Z</time>
            </trkpt>
            <trkpt lon="101.129663" lat="14.382055">
                <ele>29.938110</ele>
                <time>2006-12-16T08:12:09Z</time>
            </trkpt>
            <trkpt lon="101.129792" lat="14.382002">
                <ele>29.938110</ele>
                <time>2006-12-16T08:12:13Z</time>
            </trkpt>
            <trkpt lon="101.129911" lat="14.381962">
                <ele>29.938110</ele>
                <time>2006-12-16T08:12:16Z</time>
            </trkpt>
            <trkpt lon="101.130365" lat="14.381786">
                <ele>30.418823</ele>
                <time>2006-12-16T08:12:28Z</time>
            </trkpt>
            <trkpt lon="101.130972" lat="14.381812">
                <ele>28.496216</ele>
                <time>2006-12-16T08:12:45Z</time>
            </trkpt>
            <trkpt lon="101.130994" lat="14.381830">
                <ele>28.976929</ele>
                <time>2006-12-16T08:12:46Z</time>
            </trkpt>
            <trkpt lon="101.131128" lat="14.382426">
                <ele>27.054321</ele>
                <time>2006-12-16T08:13:03Z</time>
            </trkpt>
            <trkpt lon="101.131234" lat="14.382455">
                <ele>24.651001</ele>
                <time>2006-12-16T08:13:08Z</time>
            </trkpt>
            <trkpt lon="101.131260" lat="14.382445">
                <ele>24.651001</ele>
                <time>2006-12-16T08:13:11Z</time>
            </trkpt>
            <trkpt lon="101.131313" lat="14.382327">
                <ele>23.208984</ele>
                <time>2006-12-16T08:13:18Z</time>
            </trkpt>
            <trkpt lon="101.131347" lat="14.382246">
                <ele>22.728271</ele>
                <time>2006-12-16T08:13:21Z</time>
            </trkpt>
            <trkpt lon="101.131780" lat="14.382061">
                <ele>25.612305</ele>
                <time>2006-12-16T08:13:36Z</time>
            </trkpt>
            <trkpt lon="101.131923" lat="14.382063">
                <ele>25.612305</ele>
                <time>2006-12-16T08:13:40Z</time>
            </trkpt>
            <trkpt lon="101.131985" lat="14.382082">
                <ele>26.092896</ele>
                <time>2006-12-16T08:13:43Z</time>
            </trkpt>
            <trkpt lon="101.132070" lat="14.382501">
                <ele>24.170288</ele>
                <time>2006-12-16T08:13:57Z</time>
            </trkpt>
            <trkpt lon="101.131937" lat="14.382767">
                <ele>21.766968</ele>
                <time>2006-12-16T08:14:06Z</time>
            </trkpt>
            <trkpt lon="101.132044" lat="14.382981">
                <ele>24.170288</ele>
                <time>2006-12-16T08:14:18Z</time>
            </trkpt>
            <trkpt lon="101.132214" lat="14.383511">
                <ele>22.247559</ele>
                <time>2006-12-16T08:14:33Z</time>
            </trkpt>
            <trkpt lon="101.132450" lat="14.384225">
                <ele>25.131714</ele>
                <time>2006-12-16T08:14:54Z</time>
            </trkpt>
            <trkpt lon="101.132753" lat="14.384937">
                <ele>29.457520</ele>
                <time>2006-12-16T08:15:14Z</time>
            </trkpt>
            <trkpt lon="101.132875" lat="14.385790">
                <ele>28.976929</ele>
                <time>2006-12-16T08:15:34Z</time>
            </trkpt>
            <trkpt lon="101.132903" lat="14.385875">
                <ele>30.418823</ele>
                <time>2006-12-16T08:15:36Z</time>
            </trkpt>
            <trkpt lon="101.132965" lat="14.386236">
                <ele>28.496216</ele>
                <time>2006-12-16T08:15:44Z</time>
            </trkpt>
            <trkpt lon="101.133122" lat="14.386488">
                <ele>23.208984</ele>
                <time>2006-12-16T08:15:51Z</time>
            </trkpt>
            <trkpt lon="101.133226" lat="14.386535">
                <ele>22.728271</ele>
                <time>2006-12-16T08:15:54Z</time>
            </trkpt>
            <trkpt lon="101.133697" lat="14.386217">
                <ele>23.689575</ele>
                <time>2006-12-16T08:16:07Z</time>
            </trkpt>
            <trkpt lon="101.134415" lat="14.385819">
                <ele>26.092896</ele>
                <time>2006-12-16T08:16:24Z</time>
            </trkpt>
            <trkpt lon="101.135403" lat="14.385635">
                <ele>27.054321</ele>
                <time>2006-12-16T08:16:49Z</time>
            </trkpt>
            <trkpt lon="101.135697" lat="14.385614">
                <ele>26.573608</ele>
                <time>2006-12-16T08:16:56Z</time>
            </trkpt>
            <trkpt lon="101.136793" lat="14.385340">
                <ele>29.938110</ele>
                <time>2006-12-16T08:17:21Z</time>
            </trkpt>
            <trkpt lon="101.137859" lat="14.385088">
                <ele>31.860718</ele>
                <time>2006-12-16T08:17:41Z</time>
            </trkpt>
            <trkpt lon="101.138891" lat="14.384662">
                <ele>35.225464</ele>
                <time>2006-12-16T08:18:01Z</time>
            </trkpt>
            <trkpt lon="101.139915" lat="14.384330">
                <ele>33.783447</ele>
                <time>2006-12-16T08:18:21Z</time>
            </trkpt>
            <trkpt lon="101.140841" lat="14.384351">
                <ele>34.744873</ele>
                <time>2006-12-16T08:18:39Z</time>
            </trkpt>
            <trkpt lon="101.141690" lat="14.384107">
                <ele>36.186768</ele>
                <time>2006-12-16T08:18:56Z</time>
            </trkpt>
            <trkpt lon="101.142199" lat="14.383964">
                <ele>35.706055</ele>
                <time>2006-12-16T08:19:06Z</time>
            </trkpt>
            <trkpt lon="101.142301" lat="14.383956">
                <ele>35.706055</ele>
                <time>2006-12-16T08:19:08Z</time>
            </trkpt>
            <trkpt lon="101.142644" lat="14.383993">
                <ele>36.667480</ele>
                <time>2006-12-16T08:19:15Z</time>
            </trkpt>
            <trkpt lon="101.143256" lat="14.384086">
                <ele>37.628662</ele>
                <time>2006-12-16T08:19:28Z</time>
            </trkpt>
            <trkpt lon="101.143992" lat="14.383851">
                <ele>38.109375</ele>
                <time>2006-12-16T08:19:44Z</time>
            </trkpt>
            <trkpt lon="101.144122" lat="14.383797">
                <ele>39.070679</ele>
                <time>2006-12-16T08:19:47Z</time>
            </trkpt>
            <trkpt lon="101.145038" lat="14.383463">
                <ele>35.225464</ele>
                <time>2006-12-16T08:20:09Z</time>
            </trkpt>
            <trkpt lon="101.145791" lat="14.383169">
                <ele>38.109375</ele>
                <time>2006-12-16T08:20:28Z</time>
            </trkpt>
            <trkpt lon="101.145892" lat="14.383361">
                <ele>38.590088</ele>
                <time>2006-12-16T08:20:36Z</time>
            </trkpt>
            <trkpt lon="101.146116" lat="14.384138">
                <ele>44.358032</ele>
                <time>2006-12-16T08:20:56Z</time>
            </trkpt>
            <trkpt lon="101.146314" lat="14.384875">
                <ele>42.916016</ele>
                <time>2006-12-16T08:21:13Z</time>
            </trkpt>
            <trkpt lon="101.146433" lat="14.385407">
                <ele>45.319214</ele>
                <time>2006-12-16T08:21:25Z</time>
            </trkpt>
            <trkpt lon="101.146461" lat="14.385496">
                <ele>46.280640</ele>
                <time>2006-12-16T08:21:27Z</time>
            </trkpt>
            <trkpt lon="101.146565" lat="14.386024">
                <ele>43.877319</ele>
                <time>2006-12-16T08:21:42Z</time>
            </trkpt>
            <trkpt lon="101.146870" lat="14.386670">
                <ele>44.838623</ele>
                <time>2006-12-16T08:22:02Z</time>
            </trkpt>
            <trkpt lon="101.146953" lat="14.386803">
                <ele>45.319214</ele>
                <time>2006-12-16T08:22:06Z</time>
            </trkpt>
            <trkpt lon="101.147426" lat="14.387742">
                <ele>47.241821</ele>
                <time>2006-12-16T08:22:28Z</time>
            </trkpt>
            <trkpt lon="101.147447" lat="14.387784">
                <ele>46.761230</ele>
                <time>2006-12-16T08:22:29Z</time>
            </trkpt>
            <trkpt lon="101.147530" lat="14.388304">
                <ele>44.358032</ele>
                <time>2006-12-16T08:22:45Z</time>
            </trkpt>
            <trkpt lon="101.147683" lat="14.388862">
                <ele>40.993408</ele>
                <time>2006-12-16T08:23:06Z</time>
            </trkpt>
            <trkpt lon="101.148029" lat="14.389284">
                <ele>39.551270</ele>
                <time>2006-12-16T08:23:24Z</time>
            </trkpt>
            <trkpt lon="101.148121" lat="14.389413">
                <ele>39.070679</ele>
                <time>2006-12-16T08:23:28Z</time>
            </trkpt>
            <trkpt lon="101.148289" lat="14.390000">
                <ele>40.512817</ele>
                <time>2006-12-16T08:23:41Z</time>
            </trkpt>
            <trkpt lon="101.148253" lat="14.390033">
                <ele>40.032104</ele>
                <time>2006-12-16T08:23:45Z</time>
            </trkpt>
            <trkpt lon="101.147952" lat="14.390291">
                <ele>40.993408</ele>
                <time>2006-12-16T08:23:57Z</time>
            </trkpt>
            <trkpt lon="101.147282" lat="14.390918">
                <ele>40.032104</ele>
                <time>2006-12-16T08:24:16Z</time>
            </trkpt>
            <trkpt lon="101.146755" lat="14.391411">
                <ele>41.954712</ele>
                <time>2006-12-16T08:24:34Z</time>
            </trkpt>
            <trkpt lon="101.146266" lat="14.391777">
                <ele>40.032104</ele>
                <time>2006-12-16T08:24:50Z</time>
            </trkpt>
            <trkpt lon="101.145839" lat="14.392052">
                <ele>45.319214</ele>
                <time>2006-12-16T08:25:03Z</time>
            </trkpt>
            <trkpt lon="101.145460" lat="14.392289">
                <ele>47.241821</ele>
                <time>2006-12-16T08:25:17Z</time>
            </trkpt>
            <trkpt lon="101.145258" lat="14.392405">
                <ele>47.722534</ele>
                <time>2006-12-16T08:25:28Z</time>
            </trkpt>
            <trkpt lon="101.145195" lat="14.392501">
                <ele>47.722534</ele>
                <time>2006-12-16T08:25:35Z</time>
            </trkpt>
            <trkpt lon="101.145401" lat="14.392818">
                <ele>49.164551</ele>
                <time>2006-12-16T08:25:51Z</time>
            </trkpt>
            <trkpt lon="101.145532" lat="14.393053">
                <ele>52.048584</ele>
                <time>2006-12-16T08:26:04Z</time>
            </trkpt>
            <trkpt lon="101.145225" lat="14.393150">
                <ele>52.048584</ele>
                <time>2006-12-16T08:26:17Z</time>
            </trkpt>
            <trkpt lon="101.144902" lat="14.393224">
                <ele>52.048584</ele>
                <time>2006-12-16T08:26:29Z</time>
            </trkpt>
            <trkpt lon="101.144725" lat="14.393391">
                <ele>52.529175</ele>
                <time>2006-12-16T08:26:41Z</time>
            </trkpt>
            <trkpt lon="101.144408" lat="14.393439">
                <ele>53.490479</ele>
                <time>2006-12-16T08:26:55Z</time>
            </trkpt>
            <trkpt lon="101.144016" lat="14.393355">
                <ele>50.125977</ele>
                <time>2006-12-16T08:27:09Z</time>
            </trkpt>
            <trkpt lon="101.143744" lat="14.393229">
                <ele>48.203369</ele>
                <time>2006-12-16T08:27:20Z</time>
            </trkpt>
            <trkpt lon="101.143579" lat="14.393190">
                <ele>48.203369</ele>
                <time>2006-12-16T08:27:28Z</time>
            </trkpt>
            <trkpt lon="101.143173" lat="14.392799">
                <ele>44.358032</ele>
                <time>2006-12-16T08:27:47Z</time>
            </trkpt>
            <trkpt lon="101.143176" lat="14.392796">
                <ele>47.241821</ele>
                <time>2006-12-16T08:27:57Z</time>
            </trkpt>
            <trkpt lon="101.143214" lat="14.392833">
                <ele>46.761230</ele>
                <time>2006-12-16T08:28:01Z</time>
            </trkpt>
            <trkpt lon="101.143524" lat="14.393105">
                <ele>49.164551</ele>
                <time>2006-12-16T08:28:18Z</time>
            </trkpt>
            <trkpt lon="101.143733" lat="14.393386">
                <ele>51.087158</ele>
                <time>2006-12-16T08:28:34Z</time>
            </trkpt>
            <trkpt lon="101.143651" lat="14.393522">
                <ele>49.645264</ele>
                <time>2006-12-16T08:28:46Z</time>
            </trkpt>
            <trkpt lon="101.143317" lat="14.393631">
                <ele>47.722534</ele>
                <time>2006-12-16T08:29:01Z</time>
            </trkpt>
            <trkpt lon="101.142929" lat="14.393687">
                <ele>50.125977</ele>
                <time>2006-12-16T08:29:16Z</time>
            </trkpt>
            <trkpt lon="101.142408" lat="14.393695">
                <ele>49.645264</ele>
                <time>2006-12-16T08:29:31Z</time>
            </trkpt>
            <trkpt lon="101.142147" lat="14.393766">
                <ele>53.009766</ele>
                <time>2006-12-16T08:29:43Z</time>
            </trkpt>
            <trkpt lon="101.141840" lat="14.394072">
                <ele>54.932373</ele>
                <time>2006-12-16T08:30:01Z</time>
            </trkpt>
            <trkpt lon="101.141502" lat="14.394840">
                <ele>53.971191</ele>
                <time>2006-12-16T08:30:30Z</time>
            </trkpt>
            <trkpt lon="101.141144" lat="14.394748">
                <ele>53.490479</ele>
                <time>2006-12-16T08:30:42Z</time>
            </trkpt>
            <trkpt lon="101.141023" lat="14.394647">
                <ele>51.087158</ele>
                <time>2006-12-16T08:30:49Z</time>
            </trkpt>
            <trkpt lon="101.140952" lat="14.394779">
                <ele>49.645264</ele>
                <time>2006-12-16T08:30:55Z</time>
            </trkpt>
            <trkpt lon="101.140956" lat="14.394866">
                <ele>49.645264</ele>
                <time>2006-12-16T08:30:57Z</time>
            </trkpt>
            <trkpt lon="101.140904" lat="14.395345">
                <ele>49.164551</ele>
                <time>2006-12-16T08:31:11Z</time>
            </trkpt>
            <trkpt lon="101.140881" lat="14.395400">
                <ele>50.125977</ele>
                <time>2006-12-16T08:31:23Z</time>
            </trkpt>
            <trkpt lon="101.140855" lat="14.395517">
                <ele>50.606567</ele>
                <time>2006-12-16T08:31:32Z</time>
            </trkpt>
            <trkpt lon="101.140626" lat="14.395916">
                <ele>48.203369</ele>
                <time>2006-12-16T08:31:46Z</time>
            </trkpt>
            <trkpt lon="101.140652" lat="14.396411">
                <ele>49.164551</ele>
                <time>2006-12-16T08:32:02Z</time>
            </trkpt>
            <trkpt lon="101.140879" lat="14.396928">
                <ele>47.722534</ele>
                <time>2006-12-16T08:32:23Z</time>
            </trkpt>
            <trkpt lon="101.141221" lat="14.397215">
                <ele>44.838623</ele>
                <time>2006-12-16T08:32:39Z</time>
            </trkpt>
            <trkpt lon="101.141959" lat="14.397552">
                <ele>41.473999</ele>
                <time>2006-12-16T08:33:02Z</time>
            </trkpt>
            <trkpt lon="101.142201" lat="14.397602">
                <ele>40.512817</ele>
                <time>2006-12-16T08:33:10Z</time>
            </trkpt>
            <trkpt lon="101.142530" lat="14.398033">
                <ele>39.551270</ele>
                <time>2006-12-16T08:33:25Z</time>
            </trkpt>
            <trkpt lon="101.142901" lat="14.398229">
                <ele>39.551270</ele>
                <time>2006-12-16T08:33:37Z</time>
            </trkpt>
            <trkpt lon="101.143100" lat="14.398103">
                <ele>37.628662</ele>
                <time>2006-12-16T08:33:48Z</time>
            </trkpt>
            <trkpt lon="101.143153" lat="14.398159">
                <ele>37.628662</ele>
                <time>2006-12-16T08:33:51Z</time>
            </trkpt>
            <trkpt lon="101.143561" lat="14.398441">
                <ele>37.628662</ele>
                <time>2006-12-16T08:34:08Z</time>
            </trkpt>
            <trkpt lon="101.143847" lat="14.398540">
                <ele>38.109375</ele>
                <time>2006-12-16T08:34:21Z</time>
            </trkpt>
            <trkpt lon="101.144161" lat="14.398542">
                <ele>37.148071</ele>
                <time>2006-12-16T08:34:36Z</time>
            </trkpt>
            <trkpt lon="101.144217" lat="14.398569">
                <ele>37.148071</ele>
                <time>2006-12-16T08:34:38Z</time>
            </trkpt>
            <trkpt lon="101.144269" lat="14.398749">
                <ele>37.628662</ele>
                <time>2006-12-16T08:34:44Z</time>
            </trkpt>
            <trkpt lon="101.143916" lat="14.399645">
                <ele>40.032104</ele>
                <time>2006-12-16T08:35:04Z</time>
            </trkpt>
            <trkpt lon="101.143503" lat="14.400742">
                <ele>42.435425</ele>
                <time>2006-12-16T08:35:27Z</time>
            </trkpt>
            <trkpt lon="101.143415" lat="14.400910">
                <ele>42.916016</ele>
                <time>2006-12-16T08:35:32Z</time>
            </trkpt>
            <trkpt lon="101.143296" lat="14.400953">
                <ele>41.473999</ele>
                <time>2006-12-16T08:35:35Z</time>
            </trkpt>
            <trkpt lon="101.142851" lat="14.401205">
                <ele>42.435425</ele>
                <time>2006-12-16T08:35:47Z</time>
            </trkpt>
            <trkpt lon="101.142704" lat="14.401654">
                <ele>43.396606</ele>
                <time>2006-12-16T08:35:59Z</time>
            </trkpt>
            <trkpt lon="101.142538" lat="14.401740">
                <ele>42.916016</ele>
                <time>2006-12-16T08:36:04Z</time>
            </trkpt>
            <trkpt lon="101.142452" lat="14.401731">
                <ele>42.916016</ele>
                <time>2006-12-16T08:36:06Z</time>
            </trkpt>
            <trkpt lon="101.141530" lat="14.401966">
                <ele>41.473999</ele>
                <time>2006-12-16T08:36:24Z</time>
            </trkpt>
            <trkpt lon="101.141563" lat="14.402030">
                <ele>41.473999</ele>
                <time>2006-12-16T08:36:28Z</time>
            </trkpt>
            <trkpt lon="101.142057" lat="14.402493">
                <ele>40.993408</ele>
                <time>2006-12-16T08:36:43Z</time>
            </trkpt>
            <trkpt lon="101.142548" lat="14.402901">
                <ele>42.916016</ele>
                <time>2006-12-16T08:36:59Z</time>
            </trkpt>
            <trkpt lon="101.142546" lat="14.403111">
                <ele>43.877319</ele>
                <time>2006-12-16T08:37:07Z</time>
            </trkpt>
            <trkpt lon="101.142748" lat="14.403807">
                <ele>46.761230</ele>
                <time>2006-12-16T08:37:26Z</time>
            </trkpt>
            <trkpt lon="101.143069" lat="14.405288">
                <ele>50.606567</ele>
                <time>2006-12-16T08:38:03Z</time>
            </trkpt>
            <trkpt lon="101.143086" lat="14.406066">
                <ele>51.567871</ele>
                <time>2006-12-16T08:38:20Z</time>
            </trkpt>
            <trkpt lon="101.143074" lat="14.406103">
                <ele>52.048584</ele>
                <time>2006-12-16T08:38:21Z</time>
            </trkpt>
            <trkpt lon="101.142800" lat="14.406181">
                <ele>49.645264</ele>
                <time>2006-12-16T08:38:29Z</time>
            </trkpt>
            <trkpt lon="101.142521" lat="14.406221">
                <ele>48.683960</ele>
                <time>2006-12-16T08:38:40Z</time>
            </trkpt>
            <trkpt lon="101.141833" lat="14.406302">
                <ele>46.280640</ele>
                <time>2006-12-16T08:38:57Z</time>
            </trkpt>
            <trkpt lon="101.141059" lat="14.406392">
                <ele>45.799927</ele>
                <time>2006-12-16T08:39:16Z</time>
            </trkpt>
            <trkpt lon="101.140468" lat="14.406510">
                <ele>48.203369</ele>
                <time>2006-12-16T08:39:33Z</time>
            </trkpt>
            <trkpt lon="101.140307" lat="14.406536">
                <ele>52.529175</ele>
                <time>2006-12-16T08:39:47Z</time>
            </trkpt>
            <trkpt lon="101.140312" lat="14.406533">
                <ele>61.661743</ele>
                <time>2006-12-16T08:40:08Z</time>
            </trkpt>
            <trkpt lon="101.140336" lat="14.406611">
                <ele>61.181030</ele>
                <time>2006-12-16T08:40:13Z</time>
            </trkpt>
            <trkpt lon="101.140599" lat="14.407074">
                <ele>57.335815</ele>
                <time>2006-12-16T08:40:30Z</time>
            </trkpt>
            <trkpt lon="101.140854" lat="14.407492">
                <ele>55.413086</ele>
                <time>2006-12-16T08:40:46Z</time>
            </trkpt>
            <trkpt lon="101.141188" lat="14.408048">
                <ele>56.374512</ele>
                <time>2006-12-16T08:41:06Z</time>
            </trkpt>
            <trkpt lon="101.141396" lat="14.408459">
                <ele>62.622925</ele>
                <time>2006-12-16T08:41:23Z</time>
            </trkpt>
            <trkpt lon="101.141414" lat="14.408463">
                <ele>67.910278</ele>
                <time>2006-12-16T08:41:43Z</time>
            </trkpt>
            <trkpt lon="101.141671" lat="14.408692">
                <ele>70.313477</ele>
                <time>2006-12-16T08:41:57Z</time>
            </trkpt>
            <trkpt lon="101.142068" lat="14.409157">
                <ele>71.755493</ele>
                <time>2006-12-16T08:42:14Z</time>
            </trkpt>
            <trkpt lon="101.142492" lat="14.409830">
                <ele>71.274902</ele>
                <time>2006-12-16T08:42:36Z</time>
            </trkpt>
            <trkpt lon="101.142976" lat="14.410468">
                <ele>77.042847</ele>
                <time>2006-12-16T08:42:59Z</time>
            </trkpt>
            <trkpt lon="101.143321" lat="14.411030">
                <ele>77.042847</ele>
                <time>2006-12-16T08:43:17Z</time>
            </trkpt>
            <trkpt lon="101.143337" lat="14.411541">
                <ele>73.197632</ele>
                <time>2006-12-16T08:43:32Z</time>
            </trkpt>
            <trkpt lon="101.143073" lat="14.412071">
                <ele>73.678223</ele>
                <time>2006-12-16T08:43:48Z</time>
            </trkpt>
            <trkpt lon="101.143001" lat="14.412531">
                <ele>73.678223</ele>
                <time>2006-12-16T08:44:02Z</time>
            </trkpt>
            <trkpt lon="101.143031" lat="14.413152">
                <ele>72.236206</ele>
                <time>2006-12-16T08:44:18Z</time>
            </trkpt>
            <trkpt lon="101.142962" lat="14.413356">
                <ele>72.716919</ele>
                <time>2006-12-16T08:44:24Z</time>
            </trkpt>
            <trkpt lon="101.142986" lat="14.414179">
                <ele>70.794189</ele>
                <time>2006-12-16T08:44:43Z</time>
            </trkpt>
            <trkpt lon="101.142953" lat="14.414793">
                <ele>69.352295</ele>
                <time>2006-12-16T08:44:57Z</time>
            </trkpt>
            <trkpt lon="101.142711" lat="14.414833">
                <ele>66.948975</ele>
                <time>2006-12-16T08:45:05Z</time>
            </trkpt>
            <trkpt lon="101.141891" lat="14.414957">
                <ele>63.584351</ele>
                <time>2006-12-16T08:45:25Z</time>
            </trkpt>
            <trkpt lon="101.141193" lat="14.415070">
                <ele>61.661743</ele>
                <time>2006-12-16T08:45:42Z</time>
            </trkpt>
            <trkpt lon="101.140768" lat="14.415132">
                <ele>60.219727</ele>
                <time>2006-12-16T08:45:51Z</time>
            </trkpt>
            <trkpt lon="101.139830" lat="14.415422">
                <ele>56.374512</ele>
                <time>2006-12-16T08:46:08Z</time>
            </trkpt>
            <trkpt lon="101.138713" lat="14.415622">
                <ele>54.451782</ele>
                <time>2006-12-16T08:46:26Z</time>
            </trkpt>
            <trkpt lon="101.137682" lat="14.415798">
                <ele>53.490479</ele>
                <time>2006-12-16T08:46:45Z</time>
            </trkpt>
            <trkpt lon="101.137274" lat="14.415779">
                <ele>54.932373</ele>
                <time>2006-12-16T08:46:58Z</time>
            </trkpt>
            <trkpt lon="101.136871" lat="14.415675">
                <ele>55.413086</ele>
                <time>2006-12-16T08:47:15Z</time>
            </trkpt>
            <trkpt lon="101.136496" lat="14.415760">
                <ele>53.009766</ele>
                <time>2006-12-16T08:47:26Z</time>
            </trkpt>
            <trkpt lon="101.136305" lat="14.415792">
                <ele>52.529175</ele>
                <time>2006-12-16T08:47:31Z</time>
            </trkpt>
            <trkpt lon="101.136074" lat="14.415760">
                <ele>50.606567</ele>
                <time>2006-12-16T08:47:43Z</time>
            </trkpt>
            <trkpt lon="101.135716" lat="14.415737">
                <ele>49.164551</ele>
                <time>2006-12-16T08:47:54Z</time>
            </trkpt>
            <trkpt lon="101.135739" lat="14.415730">
                <ele>44.358032</ele>
                <time>2006-12-16T08:48:29Z</time>
            </trkpt>
            <trkpt lon="101.134628" lat="14.415879">
                <ele>39.070679</ele>
                <time>2006-12-16T08:48:59Z</time>
            </trkpt>
            <trkpt lon="101.134582" lat="14.415889">
                <ele>39.070679</ele>
                <time>2006-12-16T08:49:00Z</time>
            </trkpt>
            <trkpt lon="101.134431" lat="14.415926">
                <ele>39.070679</ele>
                <time>2006-12-16T08:49:04Z</time>
            </trkpt>
            <trkpt lon="101.134355" lat="14.415953">
                <ele>40.032104</ele>
                <time>2006-12-16T08:49:06Z</time>
            </trkpt>
            <trkpt lon="101.134183" lat="14.415990">
                <ele>41.954712</ele>
                <time>2006-12-16T08:49:09Z</time>
            </trkpt>
            <trkpt lon="101.133850" lat="14.416133">
                <ele>42.916016</ele>
                <time>2006-12-16T08:49:16Z</time>
            </trkpt>
            <trkpt lon="101.133627" lat="14.416170">
                <ele>42.435425</ele>
                <time>2006-12-16T08:49:20Z</time>
            </trkpt>
            <trkpt lon="101.133494" lat="14.416289">
                <ele>42.916016</ele>
                <time>2006-12-16T08:49:24Z</time>
            </trkpt>
            <trkpt lon="101.133593" lat="14.417286">
                <ele>48.203369</ele>
                <time>2006-12-16T08:49:42Z</time>
            </trkpt>
            <trkpt lon="101.133735" lat="14.417942">
                <ele>53.009766</ele>
                <time>2006-12-16T08:49:55Z</time>
            </trkpt>
            <trkpt lon="101.134202" lat="14.420276">
                <ele>57.816528</ele>
                <time>2006-12-16T08:50:40Z</time>
            </trkpt>
            <trkpt lon="101.134235" lat="14.420525">
                <ele>59.258423</ele>
                <time>2006-12-16T08:50:53Z</time>
            </trkpt>
            <trkpt lon="101.134159" lat="14.420599">
                <ele>57.335815</ele>
                <time>2006-12-16T08:51:04Z</time>
            </trkpt>
            <trkpt lon="101.133962" lat="14.420601">
                <ele>56.374512</ele>
                <time>2006-12-16T08:51:09Z</time>
            </trkpt>
            <trkpt lon="101.132994" lat="14.420847">
                <ele>53.009766</ele>
                <time>2006-12-16T08:51:28Z</time>
            </trkpt>
            <trkpt lon="101.132157" lat="14.421025">
                <ele>53.009766</ele>
                <time>2006-12-16T08:51:44Z</time>
            </trkpt>
            <trkpt lon="101.131167" lat="14.421238">
                <ele>51.567871</ele>
                <time>2006-12-16T08:52:05Z</time>
            </trkpt>
            <trkpt lon="101.130124" lat="14.421282">
                <ele>50.606567</ele>
                <time>2006-12-16T08:52:25Z</time>
            </trkpt>
            <trkpt lon="101.130086" lat="14.421277">
                <ele>50.125977</ele>
                <time>2006-12-16T08:52:26Z</time>
            </trkpt>
            <trkpt lon="101.129999" lat="14.421190">
                <ele>49.645264</ele>
                <time>2006-12-16T08:52:30Z</time>
            </trkpt>
            <trkpt lon="101.129953" lat="14.420444">
                <ele>53.009766</ele>
                <time>2006-12-16T08:52:45Z</time>
            </trkpt>
            <trkpt lon="101.129919" lat="14.420196">
                <ele>48.203369</ele>
                <time>2006-12-16T08:52:56Z</time>
            </trkpt>
            <trkpt lon="101.129816" lat="14.419902">
                <ele>46.761230</ele>
                <time>2006-12-16T08:53:14Z</time>
            </trkpt>
            <trkpt lon="101.129681" lat="14.419739">
                <ele>45.319214</ele>
                <time>2006-12-16T08:53:29Z</time>
            </trkpt>
            <trkpt lon="101.129672" lat="14.419743">
                <ele>44.838623</ele>
                <time>2006-12-16T08:53:30Z</time>
            </trkpt>
            <trkpt lon="101.129629" lat="14.419789">
                <ele>45.319214</ele>
                <time>2006-12-16T08:53:35Z</time>
            </trkpt>
            <trkpt lon="101.129696" lat="14.419773">
                <ele>45.319214</ele>
                <time>2006-12-16T08:53:43Z</time>
            </trkpt>
            <trkpt lon="101.129417" lat="14.419407">
                <ele>44.838623</ele>
                <time>2006-12-16T08:53:57Z</time>
            </trkpt>
            <trkpt lon="101.129402" lat="14.419371">
                <ele>44.838623</ele>
                <time>2006-12-16T08:53:58Z</time>
            </trkpt>
            <trkpt lon="101.129481" lat="14.419153">
                <ele>45.799927</ele>
                <time>2006-12-16T08:54:04Z</time>
            </trkpt>
            <trkpt lon="101.130254" lat="14.418477">
                <ele>47.722534</ele>
                <time>2006-12-16T08:54:25Z</time>
            </trkpt>
            <trkpt lon="101.131031" lat="14.417820">
                <ele>47.241821</ele>
                <time>2006-12-16T08:54:45Z</time>
            </trkpt>
            <trkpt lon="101.131115" lat="14.417710">
                <ele>47.241821</ele>
                <time>2006-12-16T08:54:48Z</time>
            </trkpt>
            <trkpt lon="101.131063" lat="14.417244">
                <ele>43.877319</ele>
                <time>2006-12-16T08:54:59Z</time>
            </trkpt>
            <trkpt lon="101.130212" lat="14.416681">
                <ele>38.109375</ele>
                <time>2006-12-16T08:55:16Z</time>
            </trkpt>
            <trkpt lon="101.129278" lat="14.416003">
                <ele>33.783447</ele>
                <time>2006-12-16T08:55:34Z</time>
            </trkpt>
            <trkpt lon="101.128419" lat="14.415432">
                <ele>31.380127</ele>
                <time>2006-12-16T08:55:53Z</time>
            </trkpt>
            <trkpt lon="101.127898" lat="14.414735">
                <ele>32.341553</ele>
                <time>2006-12-16T08:56:09Z</time>
            </trkpt>
            <trkpt lon="101.127508" lat="14.413801">
                <ele>36.186768</ele>
                <time>2006-12-16T08:56:25Z</time>
            </trkpt>
            <trkpt lon="101.127072" lat="14.412700">
                <ele>37.148071</ele>
                <time>2006-12-16T08:56:44Z</time>
            </trkpt>
            <trkpt lon="101.126466" lat="14.411878">
                <ele>37.148071</ele>
                <time>2006-12-16T08:57:01Z</time>
            </trkpt>
            <trkpt lon="101.125710" lat="14.410871">
                <ele>38.109375</ele>
                <time>2006-12-16T08:57:22Z</time>
            </trkpt>
            <trkpt lon="101.125140" lat="14.409831">
                <ele>34.744873</ele>
                <time>2006-12-16T08:57:40Z</time>
            </trkpt>
            <trkpt lon="101.124476" lat="14.408779">
                <ele>36.186768</ele>
                <time>2006-12-16T08:58:00Z</time>
            </trkpt>
            <trkpt lon="101.123991" lat="14.408151">
                <ele>36.186768</ele>
                <time>2006-12-16T08:58:17Z</time>
            </trkpt>
            <trkpt lon="101.123276" lat="14.407516">
                <ele>39.070679</ele>
                <time>2006-12-16T08:58:38Z</time>
            </trkpt>
            <trkpt lon="101.122654" lat="14.406937">
                <ele>42.916016</ele>
                <time>2006-12-16T08:58:57Z</time>
            </trkpt>
            <trkpt lon="101.121845" lat="14.406211">
                <ele>42.916016</ele>
                <time>2006-12-16T08:59:16Z</time>
            </trkpt>
            <trkpt lon="101.121423" lat="14.405848">
                <ele>45.799927</ele>
                <time>2006-12-16T08:59:30Z</time>
            </trkpt>
            <trkpt lon="101.120812" lat="14.405387">
                <ele>46.280640</ele>
                <time>2006-12-16T08:59:45Z</time>
            </trkpt>
            <trkpt lon="101.120627" lat="14.405293">
                <ele>46.280640</ele>
                <time>2006-12-16T08:59:48Z</time>
            </trkpt>
            <trkpt lon="101.120501" lat="14.405250">
                <ele>45.799927</ele>
                <time>2006-12-16T08:59:50Z</time>
            </trkpt>
            <trkpt lon="101.120197" lat="14.405277">
                <ele>45.799927</ele>
                <time>2006-12-16T08:59:55Z</time>
            </trkpt>
            <trkpt lon="101.119152" lat="14.405773">
                <ele>43.396606</ele>
                <time>2006-12-16T09:00:11Z</time>
            </trkpt>
            <trkpt lon="101.118089" lat="14.406051">
                <ele>39.070679</ele>
                <time>2006-12-16T09:00:27Z</time>
            </trkpt>
            <trkpt lon="101.117010" lat="14.406369">
                <ele>38.590088</ele>
                <time>2006-12-16T09:00:42Z</time>
            </trkpt>
            <trkpt lon="101.116767" lat="14.406176">
                <ele>38.590088</ele>
                <time>2006-12-16T09:00:47Z</time>
            </trkpt>
            <trkpt lon="101.116096" lat="14.405217">
                <ele>36.667480</ele>
                <time>2006-12-16T09:01:04Z</time>
            </trkpt>
            <trkpt lon="101.115398" lat="14.404189">
                <ele>36.667480</ele>
                <time>2006-12-16T09:01:24Z</time>
            </trkpt>
            <trkpt lon="101.114921" lat="14.403491">
                <ele>36.667480</ele>
                <time>2006-12-16T09:01:41Z</time>
            </trkpt>
            <trkpt lon="101.114566" lat="14.402944">
                <ele>38.109375</ele>
                <time>2006-12-16T09:01:56Z</time>
            </trkpt>
            <trkpt lon="101.114514" lat="14.402732">
                <ele>36.667480</ele>
                <time>2006-12-16T09:02:01Z</time>
            </trkpt>
            <trkpt lon="101.114270" lat="14.402129">
                <ele>38.590088</ele>
                <time>2006-12-16T09:02:18Z</time>
            </trkpt>
            <trkpt lon="101.114263" lat="14.402101">
                <ele>38.590088</ele>
                <time>2006-12-16T09:02:31Z</time>
            </trkpt>
            <trkpt lon="101.114240" lat="14.401873">
                <ele>38.109375</ele>
                <time>2006-12-16T09:02:44Z</time>
            </trkpt>
            <trkpt lon="101.114221" lat="14.401218">
                <ele>34.264160</ele>
                <time>2006-12-16T09:03:01Z</time>
            </trkpt>
            <trkpt lon="101.114266" lat="14.400851">
                <ele>34.744873</ele>
                <time>2006-12-16T09:03:07Z</time>
            </trkpt>
            <trkpt lon="101.113732" lat="14.398690">
                <ele>32.341553</ele>
                <time>2006-12-16T09:03:56Z</time>
            </trkpt>
            <trkpt lon="101.113695" lat="14.398416">
                <ele>31.380127</ele>
                <time>2006-12-16T09:04:01Z</time>
            </trkpt>
            <trkpt lon="101.113390" lat="14.397462">
                <ele>34.744873</ele>
                <time>2006-12-16T09:04:19Z</time>
            </trkpt>
            <trkpt lon="101.113386" lat="14.397371">
                <ele>35.225464</ele>
                <time>2006-12-16T09:04:21Z</time>
            </trkpt>
            <trkpt lon="101.113428" lat="14.397216">
                <ele>36.186768</ele>
                <time>2006-12-16T09:04:25Z</time>
            </trkpt>
            <trkpt lon="101.113892" lat="14.396958">
                <ele>37.628662</ele>
                <time>2006-12-16T09:04:39Z</time>
            </trkpt>
            <trkpt lon="101.113932" lat="14.396809">
                <ele>36.667480</ele>
                <time>2006-12-16T09:04:43Z</time>
            </trkpt>
            <trkpt lon="101.113897" lat="14.396602">
                <ele>37.628662</ele>
                <time>2006-12-16T09:04:48Z</time>
            </trkpt>
            <trkpt lon="101.113823" lat="14.396482">
                <ele>38.109375</ele>
                <time>2006-12-16T09:04:53Z</time>
            </trkpt>
            <trkpt lon="101.113590" lat="14.395836">
                <ele>40.993408</ele>
                <time>2006-12-16T09:05:17Z</time>
            </trkpt>
            <trkpt lon="101.113809" lat="14.395570">
                <ele>41.473999</ele>
                <time>2006-12-16T09:05:29Z</time>
            </trkpt>
            <trkpt lon="101.114065" lat="14.395366">
                <ele>44.358032</ele>
                <time>2006-12-16T09:05:43Z</time>
            </trkpt>
            <trkpt lon="101.114329" lat="14.395130">
                <ele>45.319214</ele>
                <time>2006-12-16T09:06:00Z</time>
            </trkpt>
            <trkpt lon="101.114507" lat="14.394979">
                <ele>48.683960</ele>
                <time>2006-12-16T09:06:17Z</time>
            </trkpt>
            <trkpt lon="101.114528" lat="14.394922">
                <ele>48.683960</ele>
                <time>2006-12-16T09:06:31Z</time>
            </trkpt>
            <trkpt lon="101.114519" lat="14.394856">
                <ele>49.645264</ele>
                <time>2006-12-16T09:06:39Z</time>
            </trkpt>
            <trkpt lon="101.114498" lat="14.394762">
                <ele>50.125977</ele>
                <time>2006-12-16T09:06:48Z</time>
            </trkpt>
            <trkpt lon="101.114423" lat="14.394747">
                <ele>51.087158</ele>
                <time>2006-12-16T09:06:54Z</time>
            </trkpt>
            <trkpt lon="101.114232" lat="14.394641">
                <ele>54.932373</ele>
                <time>2006-12-16T09:07:10Z</time>
            </trkpt>
            <trkpt lon="101.114167" lat="14.394538">
                <ele>58.297119</ele>
                <time>2006-12-16T09:07:21Z</time>
            </trkpt>
            <trkpt lon="101.114122" lat="14.394514">
                <ele>59.258423</ele>
                <time>2006-12-16T09:07:25Z</time>
            </trkpt>
            <trkpt lon="101.113904" lat="14.394450">
                <ele>58.777710</ele>
                <time>2006-12-16T09:07:40Z</time>
            </trkpt>
            <trkpt lon="101.113515" lat="14.394316">
                <ele>59.258423</ele>
                <time>2006-12-16T09:07:54Z</time>
            </trkpt>
            <trkpt lon="101.113189" lat="14.393915">
                <ele>60.219727</ele>
                <time>2006-12-16T09:08:08Z</time>
            </trkpt>
            <trkpt lon="101.113076" lat="14.393766">
                <ele>58.777710</ele>
                <time>2006-12-16T09:08:13Z</time>
            </trkpt>
            <trkpt lon="101.112982" lat="14.393536">
                <ele>57.335815</ele>
                <time>2006-12-16T09:08:19Z</time>
            </trkpt>
            <trkpt lon="101.112595" lat="14.393095">
                <ele>55.413086</ele>
                <time>2006-12-16T09:08:34Z</time>
            </trkpt>
            <trkpt lon="101.112573" lat="14.393039">
                <ele>54.451782</ele>
                <time>2006-12-16T09:08:38Z</time>
            </trkpt>
            <trkpt lon="101.112557" lat="14.392750">
                <ele>49.645264</ele>
                <time>2006-12-16T09:08:54Z</time>
            </trkpt>
            <trkpt lon="101.112602" lat="14.392265">
                <ele>49.645264</ele>
                <time>2006-12-16T09:09:09Z</time>
            </trkpt>
            <trkpt lon="101.112876" lat="14.391735">
                <ele>49.164551</ele>
                <time>2006-12-16T09:09:25Z</time>
            </trkpt>
            <trkpt lon="101.112817" lat="14.391340">
                <ele>49.645264</ele>
                <time>2006-12-16T09:09:39Z</time>
            </trkpt>
            <trkpt lon="101.112545" lat="14.390933">
                <ele>40.993408</ele>
                <time>2006-12-16T09:09:56Z</time>
            </trkpt>
            <trkpt lon="101.112351" lat="14.390656">
                <ele>39.551270</ele>
                <time>2006-12-16T09:10:08Z</time>
            </trkpt>
            <trkpt lon="101.111933" lat="14.390568">
                <ele>35.706055</ele>
                <time>2006-12-16T09:10:19Z</time>
            </trkpt>
            <trkpt lon="101.111202" lat="14.390421">
                <ele>36.186768</ele>
                <time>2006-12-16T09:10:33Z</time>
            </trkpt>
            <trkpt lon="101.111048" lat="14.390434">
                <ele>34.744873</ele>
                <time>2006-12-16T09:10:36Z</time>
            </trkpt>
            <trkpt lon="101.110844" lat="14.390452">
                <ele>34.744873</ele>
                <time>2006-12-16T09:10:40Z</time>
            </trkpt>
            <trkpt lon="101.110622" lat="14.390462">
                <ele>40.512817</ele>
                <time>2006-12-16T09:10:52Z</time>
            </trkpt>
            <trkpt lon="101.110449" lat="14.390485">
                <ele>39.551270</ele>
                <time>2006-12-16T09:11:00Z</time>
            </trkpt>
            <trkpt lon="101.110003" lat="14.390857">
                <ele>31.860718</ele>
                <time>2006-12-16T09:11:16Z</time>
            </trkpt>
            <trkpt lon="101.109159" lat="14.391628">
                <ele>30.899536</ele>
                <time>2006-12-16T09:11:44Z</time>
            </trkpt>
            <trkpt lon="101.108793" lat="14.391775">
                <ele>24.651001</ele>
                <time>2006-12-16T09:11:53Z</time>
            </trkpt>
            <trkpt lon="101.108559" lat="14.391645">
                <ele>23.689575</ele>
                <time>2006-12-16T09:12:01Z</time>
            </trkpt>
            <trkpt lon="101.108479" lat="14.391296">
                <ele>22.728271</ele>
                <time>2006-12-16T09:12:13Z</time>
            </trkpt>
            <trkpt lon="101.108366" lat="14.390657">
                <ele>19.844360</ele>
                <time>2006-12-16T09:12:26Z</time>
            </trkpt>
            <trkpt lon="101.108158" lat="14.390300">
                <ele>21.766968</ele>
                <time>2006-12-16T09:12:34Z</time>
            </trkpt>
            <trkpt lon="101.107542" lat="14.389890">
                <ele>26.092896</ele>
                <time>2006-12-16T09:12:48Z</time>
            </trkpt>
            <trkpt lon="101.106945" lat="14.389439">
                <ele>27.054321</ele>
                <time>2006-12-16T09:13:03Z</time>
            </trkpt>
            <trkpt lon="101.106886" lat="14.389385">
                <ele>26.573608</ele>
                <time>2006-12-16T09:13:05Z</time>
            </trkpt>
            <trkpt lon="101.106985" lat="14.389152">
                <ele>27.054321</ele>
                <time>2006-12-16T09:13:13Z</time>
            </trkpt>
            <trkpt lon="101.106998" lat="14.389121">
                <ele>26.573608</ele>
                <time>2006-12-16T09:13:14Z</time>
            </trkpt>
            <trkpt lon="101.107123" lat="14.388898">
                <ele>27.534912</ele>
                <time>2006-12-16T09:13:26Z</time>
            </trkpt>
            <trkpt lon="101.107255" lat="14.388688">
                <ele>28.496216</ele>
                <time>2006-12-16T09:13:37Z</time>
            </trkpt>
            <trkpt lon="101.107333" lat="14.388597">
                <ele>28.496216</ele>
                <time>2006-12-16T09:13:42Z</time>
            </trkpt>
            <trkpt lon="101.107536" lat="14.388252">
                <ele>27.054321</ele>
                <time>2006-12-16T09:13:58Z</time>
            </trkpt>
            <trkpt lon="101.107522" lat="14.387960">
                <ele>27.054321</ele>
                <time>2006-12-16T09:14:10Z</time>
            </trkpt>
            <trkpt lon="101.107490" lat="14.387798">
                <ele>27.534912</ele>
                <time>2006-12-16T09:14:20Z</time>
            </trkpt>
            <trkpt lon="101.107206" lat="14.387727">
                <ele>28.496216</ele>
                <time>2006-12-16T09:14:38Z</time>
            </trkpt>
            <trkpt lon="101.107171" lat="14.387711">
                <ele>28.015503</ele>
                <time>2006-12-16T09:14:43Z</time>
            </trkpt>
            <trkpt lon="101.107121" lat="14.387685">
                <ele>26.573608</ele>
                <time>2006-12-16T09:14:51Z</time>
            </trkpt>
            <trkpt lon="101.107035" lat="14.387672">
                <ele>28.496216</ele>
                <time>2006-12-16T09:15:09Z</time>
            </trkpt>
            <trkpt lon="101.107020" lat="14.387683">
                <ele>24.651001</ele>
                <time>2006-12-16T09:15:29Z</time>
            </trkpt>
            <trkpt lon="101.106911" lat="14.387688">
                <ele>21.286377</ele>
                <time>2006-12-16T09:15:42Z</time>
            </trkpt>
            <trkpt lon="101.106897" lat="14.387663">
                <ele>21.766968</ele>
                <time>2006-12-16T09:15:48Z</time>
            </trkpt>
            <trkpt lon="101.106902" lat="14.387572">
                <ele>20.805664</ele>
                <time>2006-12-16T09:15:58Z</time>
            </trkpt>
            <trkpt lon="101.106881" lat="14.387540">
                <ele>20.324951</ele>
                <time>2006-12-16T09:16:01Z</time>
            </trkpt>
            <trkpt lon="101.106835" lat="14.386926">
                <ele>24.170288</ele>
                <time>2006-12-16T09:16:35Z</time>
            </trkpt>
            <trkpt lon="101.106856" lat="14.386678">
                <ele>23.689575</ele>
                <time>2006-12-16T09:16:44Z</time>
            </trkpt>
            <trkpt lon="101.106852" lat="14.386626">
                <ele>25.612305</ele>
                <time>2006-12-16T09:16:46Z</time>
            </trkpt>
            <trkpt lon="101.107302" lat="14.386443">
                <ele>24.170288</ele>
                <time>2006-12-16T09:17:00Z</time>
            </trkpt>
            <trkpt lon="101.107719" lat="14.386304">
                <ele>22.728271</ele>
                <time>2006-12-16T09:17:10Z</time>
            </trkpt>
            <trkpt lon="101.107730" lat="14.386110">
                <ele>22.728271</ele>
                <time>2006-12-16T09:17:15Z</time>
            </trkpt>
            <trkpt lon="101.107759" lat="14.385589">
                <ele>22.247559</ele>
                <time>2006-12-16T09:17:28Z</time>
            </trkpt>
            <trkpt lon="101.108107" lat="14.385095">
                <ele>21.766968</ele>
                <time>2006-12-16T09:17:43Z</time>
            </trkpt>
            <trkpt lon="101.108052" lat="14.384706">
                <ele>21.766968</ele>
                <time>2006-12-16T09:17:54Z</time>
            </trkpt>
            <trkpt lon="101.108038" lat="14.384620">
                <ele>22.247559</ele>
                <time>2006-12-16T09:17:56Z</time>
            </trkpt>
            <trkpt lon="101.107805" lat="14.383827">
                <ele>25.612305</ele>
                <time>2006-12-16T09:18:15Z</time>
            </trkpt>
            <trkpt lon="101.107513" lat="14.382933">
                <ele>26.092896</ele>
                <time>2006-12-16T09:18:34Z</time>
            </trkpt>
            <trkpt lon="101.107270" lat="14.382169">
                <ele>27.054321</ele>
                <time>2006-12-16T09:18:49Z</time>
            </trkpt>
            <trkpt lon="101.107260" lat="14.382045">
                <ele>27.054321</ele>
                <time>2006-12-16T09:18:56Z</time>
            </trkpt>
            <trkpt lon="101.107222" lat="14.382019">
                <ele>27.534912</ele>
                <time>2006-12-16T09:18:59Z</time>
            </trkpt>
            <trkpt lon="101.107042" lat="14.381518">
                <ele>27.054321</ele>
                <time>2006-12-16T09:19:13Z</time>
            </trkpt>
            <trkpt lon="101.107005" lat="14.381450">
                <ele>27.054321</ele>
                <time>2006-12-16T09:19:15Z</time>
            </trkpt>
            <trkpt lon="101.106857" lat="14.381434">
                <ele>26.573608</ele>
                <time>2006-12-16T09:19:19Z</time>
            </trkpt>
            <trkpt lon="101.106351" lat="14.381602">
                <ele>24.651001</ele>
                <time>2006-12-16T09:19:35Z</time>
            </trkpt>
            <trkpt lon="101.106188" lat="14.381443">
                <ele>24.170288</ele>
                <time>2006-12-16T09:19:49Z</time>
            </trkpt>
            <trkpt lon="101.106052" lat="14.381067">
                <ele>25.131714</ele>
                <time>2006-12-16T09:20:08Z</time>
            </trkpt>
            <trkpt lon="101.105894" lat="14.380758">
                <ele>25.612305</ele>
                <time>2006-12-16T09:20:22Z</time>
            </trkpt>
            <trkpt lon="101.105767" lat="14.380449">
                <ele>26.092896</ele>
                <time>2006-12-16T09:20:39Z</time>
            </trkpt>
            <trkpt lon="101.105534" lat="14.380025">
                <ele>24.651001</ele>
                <time>2006-12-16T09:20:54Z</time>
            </trkpt>
            <trkpt lon="101.105390" lat="14.379710">
                <ele>23.208984</ele>
                <time>2006-12-16T09:21:06Z</time>
            </trkpt>
            <trkpt lon="101.105783" lat="14.379555">
                <ele>22.247559</ele>
                <time>2006-12-16T09:21:17Z</time>
            </trkpt>
            <trkpt lon="101.106462" lat="14.379245">
                <ele>17.441162</ele>
                <time>2006-12-16T09:21:34Z</time>
            </trkpt>
            <trkpt lon="101.106667" lat="14.379166">
                <ele>16.960449</ele>
                <time>2006-12-16T09:21:39Z</time>
            </trkpt>
            <trkpt lon="101.106786" lat="14.378931">
                <ele>18.402344</ele>
                <time>2006-12-16T09:21:47Z</time>
            </trkpt>
            <trkpt lon="101.106448" lat="14.378171">
                <ele>20.324951</ele>
                <time>2006-12-16T09:22:04Z</time>
            </trkpt>
            <trkpt lon="101.106054" lat="14.377300">
                <ele>19.363770</ele>
                <time>2006-12-16T09:22:23Z</time>
            </trkpt>
            <trkpt lon="101.105636" lat="14.376493">
                <ele>19.844360</ele>
                <time>2006-12-16T09:22:43Z</time>
            </trkpt>
            <trkpt lon="101.105148" lat="14.375454">
                <ele>21.286377</ele>
                <time>2006-12-16T09:23:05Z</time>
            </trkpt>
            <trkpt lon="101.104684" lat="14.374410">
                <ele>22.247559</ele>
                <time>2006-12-16T09:23:26Z</time>
            </trkpt>
            <trkpt lon="101.104305" lat="14.373535">
                <ele>23.208984</ele>
                <time>2006-12-16T09:23:43Z</time>
            </trkpt>
            <trkpt lon="101.103958" lat="14.372667">
                <ele>21.766968</ele>
                <time>2006-12-16T09:24:00Z</time>
            </trkpt>
            <trkpt lon="101.103725" lat="14.372024">
                <ele>23.689575</ele>
                <time>2006-12-16T09:24:13Z</time>
            </trkpt>
            <trkpt lon="101.103907" lat="14.371061">
                <ele>20.324951</ele>
                <time>2006-12-16T09:24:28Z</time>
            </trkpt>
            <trkpt lon="101.104189" lat="14.370009">
                <ele>16.960449</ele>
                <time>2006-12-16T09:24:47Z</time>
            </trkpt>
            <trkpt lon="101.104528" lat="14.369353">
                <ele>21.286377</ele>
                <time>2006-12-16T09:25:01Z</time>
            </trkpt>
            <trkpt lon="101.104576" lat="14.369078">
                <ele>22.247559</ele>
                <time>2006-12-16T09:25:06Z</time>
            </trkpt>
            <trkpt lon="101.104239" lat="14.368367">
                <ele>20.324951</ele>
                <time>2006-12-16T09:25:21Z</time>
            </trkpt>
            <trkpt lon="101.103944" lat="14.367605">
                <ele>19.844360</ele>
                <time>2006-12-16T09:25:36Z</time>
            </trkpt>
            <trkpt lon="101.103832" lat="14.367423">
                <ele>18.883057</ele>
                <time>2006-12-16T09:25:40Z</time>
            </trkpt>
            <trkpt lon="101.103631" lat="14.366927">
                <ele>20.805664</ele>
                <time>2006-12-16T09:25:54Z</time>
            </trkpt>
            <trkpt lon="101.103394" lat="14.366335">
                <ele>20.805664</ele>
                <time>2006-12-16T09:26:11Z</time>
            </trkpt>
            <trkpt lon="101.103309" lat="14.366016">
                <ele>21.286377</ele>
                <time>2006-12-16T09:26:19Z</time>
            </trkpt>
            <trkpt lon="101.103191" lat="14.365957">
                <ele>21.286377</ele>
                <time>2006-12-16T09:26:23Z</time>
            </trkpt>
            <trkpt lon="101.102445" lat="14.365975">
                <ele>20.324951</ele>
                <time>2006-12-16T09:26:39Z</time>
            </trkpt>
            <trkpt lon="101.102297" lat="14.365983">
                <ele>19.844360</ele>
                <time>2006-12-16T09:26:42Z</time>
            </trkpt>
            <trkpt lon="101.101798" lat="14.366001">
                <ele>19.844360</ele>
                <time>2006-12-16T09:26:52Z</time>
            </trkpt>
            <trkpt lon="101.101572" lat="14.366013">
                <ele>20.324951</ele>
                <time>2006-12-16T09:26:57Z</time>
            </trkpt>
            <trkpt lon="101.100713" lat="14.365938">
                <ele>19.363770</ele>
                <time>2006-12-16T09:27:16Z</time>
            </trkpt>
            <trkpt lon="101.099496" lat="14.365911">
                <ele>14.557007</ele>
                <time>2006-12-16T09:27:40Z</time>
            </trkpt>
            <trkpt lon="101.098497" lat="14.366052">
                <ele>13.115112</ele>
                <time>2006-12-16T09:28:00Z</time>
            </trkpt>
            <trkpt lon="101.097780" lat="14.366204">
                <ele>8.308594</ele>
                <time>2006-12-16T09:28:14Z</time>
            </trkpt>
            <trkpt lon="101.097161" lat="14.366342">
                <ele>6.866455</ele>
                <time>2006-12-16T09:28:26Z</time>
            </trkpt>
            <trkpt lon="101.097055" lat="14.366372">
                <ele>7.347168</ele>
                <time>2006-12-16T09:28:28Z</time>
            </trkpt>
            <trkpt lon="101.096095" lat="14.366498">
                <ele>8.789185</ele>
                <time>2006-12-16T09:28:47Z</time>
            </trkpt>
            <trkpt lon="101.095750" lat="14.366521">
                <ele>7.347168</ele>
                <time>2006-12-16T09:28:54Z</time>
            </trkpt>
            <trkpt lon="101.094615" lat="14.366809">
                <ele>7.827881</ele>
                <time>2006-12-16T09:29:18Z</time>
            </trkpt>
            <trkpt lon="101.094496" lat="14.366862">
                <ele>8.308594</ele>
                <time>2006-12-16T09:29:21Z</time>
            </trkpt>
            <trkpt lon="101.093583" lat="14.367118">
                <ele>8.789185</ele>
                <time>2006-12-16T09:29:39Z</time>
            </trkpt>
            <trkpt lon="101.093531" lat="14.367132">
                <ele>8.308594</ele>
                <time>2006-12-16T09:29:40Z</time>
            </trkpt>
            <trkpt lon="101.093354" lat="14.367018">
                <ele>8.308594</ele>
                <time>2006-12-16T09:29:45Z</time>
            </trkpt>
            <trkpt lon="101.093200" lat="14.366501">
                <ele>9.269897</ele>
                <time>2006-12-16T09:29:55Z</time>
            </trkpt>
            <trkpt lon="101.092668" lat="14.365564">
                <ele>9.269897</ele>
                <time>2006-12-16T09:30:12Z</time>
            </trkpt>
            <trkpt lon="101.091474" lat="14.364207">
                <ele>15.999023</ele>
                <time>2006-12-16T09:30:53Z</time>
            </trkpt>
            <trkpt lon="101.091466" lat="14.364169">
                <ele>16.479736</ele>
                <time>2006-12-16T09:30:54Z</time>
            </trkpt>
            <trkpt lon="101.091217" lat="14.363462">
                <ele>18.402344</ele>
                <time>2006-12-16T09:31:10Z</time>
            </trkpt>
            <trkpt lon="101.091032" lat="14.362508">
                <ele>16.479736</ele>
                <time>2006-12-16T09:31:29Z</time>
            </trkpt>
            <trkpt lon="101.091085" lat="14.361645">
                <ele>14.557007</ele>
                <time>2006-12-16T09:31:48Z</time>
            </trkpt>
            <trkpt lon="101.091098" lat="14.361594">
                <ele>14.557007</ele>
                <time>2006-12-16T09:31:49Z</time>
            </trkpt>
            <trkpt lon="101.091198" lat="14.361042">
                <ele>15.037720</ele>
                <time>2006-12-16T09:32:02Z</time>
            </trkpt>
            <trkpt lon="101.091303" lat="14.360346">
                <ele>13.595825</ele>
                <time>2006-12-16T09:32:20Z</time>
            </trkpt>
            <trkpt lon="101.091300" lat="14.360029">
                <ele>15.037720</ele>
                <time>2006-12-16T09:32:28Z</time>
            </trkpt>
            <trkpt lon="101.090789" lat="14.359875">
                <ele>16.960449</ele>
                <time>2006-12-16T09:32:41Z</time>
            </trkpt>
            <trkpt lon="101.090069" lat="14.359613">
                <ele>13.115112</ele>
                <time>2006-12-16T09:32:57Z</time>
            </trkpt>
            <trkpt lon="101.089942" lat="14.359436">
                <ele>13.595825</ele>
                <time>2006-12-16T09:33:02Z</time>
            </trkpt>
            <trkpt lon="101.089650" lat="14.357367">
                <ele>10.711792</ele>
                <time>2006-12-16T09:33:45Z</time>
            </trkpt>
            <trkpt lon="101.089480" lat="14.356445">
                <ele>11.673218</ele>
                <time>2006-12-16T09:34:03Z</time>
            </trkpt>
            <trkpt lon="101.089333" lat="14.355553">
                <ele>12.153809</ele>
                <time>2006-12-16T09:34:22Z</time>
            </trkpt>
            <trkpt lon="101.089185" lat="14.354892">
                <ele>12.153809</ele>
                <time>2006-12-16T09:34:40Z</time>
            </trkpt>
            <trkpt lon="101.088958" lat="14.354105">
                <ele>15.518433</ele>
                <time>2006-12-16T09:35:01Z</time>
            </trkpt>
            <trkpt lon="101.088654" lat="14.353177">
                <ele>18.883057</ele>
                <time>2006-12-16T09:35:19Z</time>
            </trkpt>
            <trkpt lon="101.088241" lat="14.352238">
                <ele>15.518433</ele>
                <time>2006-12-16T09:35:40Z</time>
            </trkpt>
            <trkpt lon="101.087957" lat="14.351466">
                <ele>16.960449</ele>
                <time>2006-12-16T09:36:00Z</time>
            </trkpt>
            <trkpt lon="101.087860" lat="14.351155">
                <ele>15.999023</ele>
                <time>2006-12-16T09:36:08Z</time>
            </trkpt>
            <trkpt lon="101.087643" lat="14.351055">
                <ele>15.518433</ele>
                <time>2006-12-16T09:36:16Z</time>
            </trkpt>
            <trkpt lon="101.087414" lat="14.350997">
                <ele>14.076416</ele>
                <time>2006-12-16T09:36:21Z</time>
            </trkpt>
            <trkpt lon="101.087220" lat="14.350974">
                <ele>14.076416</ele>
                <time>2006-12-16T09:36:25Z</time>
            </trkpt>
            <trkpt lon="101.086986" lat="14.350977">
                <ele>14.557007</ele>
                <time>2006-12-16T09:36:30Z</time>
            </trkpt>
            <trkpt lon="101.086831" lat="14.350800">
                <ele>14.076416</ele>
                <time>2006-12-16T09:36:35Z</time>
            </trkpt>
            <trkpt lon="101.086626" lat="14.350279">
                <ele>13.595825</ele>
                <time>2006-12-16T09:36:50Z</time>
            </trkpt>
            <trkpt lon="101.086608" lat="14.350271">
                <ele>13.115112</ele>
                <time>2006-12-16T09:37:11Z</time>
            </trkpt>
            <trkpt lon="101.086562" lat="14.350244">
                <ele>9.750610</ele>
                <time>2006-12-16T09:38:05Z</time>
            </trkpt>
            <trkpt lon="101.086567" lat="14.350262">
                <ele>13.595825</ele>
                <time>2006-12-16T09:41:30Z</time>
            </trkpt>
            <trkpt lon="101.086544" lat="14.350216">
                <ele>13.595825</ele>
                <time>2006-12-16T09:41:34Z</time>
            </trkpt>
            <trkpt lon="101.086412" lat="14.349859">
                <ele>12.634399</ele>
                <time>2006-12-16T09:41:47Z</time>
            </trkpt>
            <trkpt lon="101.086314" lat="14.349574">
                <ele>11.192505</ele>
                <time>2006-12-16T09:41:55Z</time>
            </trkpt>
            <trkpt lon="101.085929" lat="14.348904">
                <ele>14.557007</ele>
                <time>2006-12-16T09:42:11Z</time>
            </trkpt>
            <trkpt lon="101.085546" lat="14.348413">
                <ele>14.076416</ele>
                <time>2006-12-16T09:42:24Z</time>
            </trkpt>
            <trkpt lon="101.085542" lat="14.348316">
                <ele>14.557007</ele>
                <time>2006-12-16T09:42:27Z</time>
            </trkpt>
            <trkpt lon="101.085962" lat="14.348020">
                <ele>13.595825</ele>
                <time>2006-12-16T09:42:40Z</time>
            </trkpt>
            <trkpt lon="101.086649" lat="14.347787">
                <ele>13.115112</ele>
                <time>2006-12-16T09:42:55Z</time>
            </trkpt>
            <trkpt lon="101.087481" lat="14.347850">
                <ele>10.711792</ele>
                <time>2006-12-16T09:43:12Z</time>
            </trkpt>
            <trkpt lon="101.088741" lat="14.347904">
                <ele>8.308594</ele>
                <time>2006-12-16T09:43:34Z</time>
            </trkpt>
            <trkpt lon="101.089963" lat="14.347864">
                <ele>10.711792</ele>
                <time>2006-12-16T09:43:56Z</time>
            </trkpt>
            <trkpt lon="101.091005" lat="14.347747">
                <ele>12.634399</ele>
                <time>2006-12-16T09:44:16Z</time>
            </trkpt>
            <trkpt lon="101.091043" lat="14.347520">
                <ele>12.634399</ele>
                <time>2006-12-16T09:44:23Z</time>
            </trkpt>
            <trkpt lon="101.090688" lat="14.346675">
                <ele>14.557007</ele>
                <time>2006-12-16T09:44:41Z</time>
            </trkpt>
            <trkpt lon="101.090374" lat="14.345896">
                <ele>14.557007</ele>
                <time>2006-12-16T09:44:58Z</time>
            </trkpt>
            <trkpt lon="101.090209" lat="14.345537">
                <ele>14.557007</ele>
                <time>2006-12-16T09:45:10Z</time>
            </trkpt>
            <trkpt lon="101.089855" lat="14.344631">
                <ele>14.557007</ele>
                <time>2006-12-16T09:45:31Z</time>
            </trkpt>
            <trkpt lon="101.089396" lat="14.343450">
                <ele>14.557007</ele>
                <time>2006-12-16T09:45:56Z</time>
            </trkpt>
            <trkpt lon="101.088983" lat="14.342334">
                <ele>13.595825</ele>
                <time>2006-12-16T09:46:18Z</time>
            </trkpt>
            <trkpt lon="101.088705" lat="14.341246">
                <ele>12.634399</ele>
                <time>2006-12-16T09:46:38Z</time>
            </trkpt>
            <trkpt lon="101.088479" lat="14.340272">
                <ele>12.153809</ele>
                <time>2006-12-16T09:46:56Z</time>
            </trkpt>
            <trkpt lon="101.088152" lat="14.339011">
                <ele>10.711792</ele>
                <time>2006-12-16T09:47:18Z</time>
            </trkpt>
            <trkpt lon="101.087852" lat="14.337867">
                <ele>11.192505</ele>
                <time>2006-12-16T09:47:38Z</time>
            </trkpt>
            <trkpt lon="101.087596" lat="14.336892">
                <ele>10.711792</ele>
                <time>2006-12-16T09:47:56Z</time>
            </trkpt>
            <trkpt lon="101.087348" lat="14.335923">
                <ele>10.711792</ele>
                <time>2006-12-16T09:48:15Z</time>
            </trkpt>
            <trkpt lon="101.087081" lat="14.334846">
                <ele>10.231201</ele>
                <time>2006-12-16T09:48:37Z</time>
            </trkpt>
            <trkpt lon="101.086802" lat="14.333756">
                <ele>11.673218</ele>
                <time>2006-12-16T09:48:59Z</time>
            </trkpt>
            <trkpt lon="101.086535" lat="14.332892">
                <ele>11.192505</ele>
                <time>2006-12-16T09:49:17Z</time>
            </trkpt>
            <trkpt lon="101.086080" lat="14.331794">
                <ele>11.673218</ele>
                <time>2006-12-16T09:49:40Z</time>
            </trkpt>
            <trkpt lon="101.085639" lat="14.330810">
                <ele>9.269897</ele>
                <time>2006-12-16T09:50:00Z</time>
            </trkpt>
            <trkpt lon="101.085114" lat="14.329677">
                <ele>7.827881</ele>
                <time>2006-12-16T09:50:23Z</time>
            </trkpt>
            <trkpt lon="101.084690" lat="14.328731">
                <ele>8.308594</ele>
                <time>2006-12-16T09:50:43Z</time>
            </trkpt>
            <trkpt lon="101.084328" lat="14.327937">
                <ele>12.634399</ele>
                <time>2006-12-16T09:51:01Z</time>
            </trkpt>
            <trkpt lon="101.083864" lat="14.326913">
                <ele>10.231201</ele>
                <time>2006-12-16T09:51:23Z</time>
            </trkpt>
            <trkpt lon="101.083442" lat="14.325999">
                <ele>9.750610</ele>
                <time>2006-12-16T09:51:43Z</time>
            </trkpt>
            <trkpt lon="101.083020" lat="14.325072">
                <ele>10.231201</ele>
                <time>2006-12-16T09:52:03Z</time>
            </trkpt>
            <trkpt lon="101.082700" lat="14.324294">
                <ele>9.269897</ele>
                <time>2006-12-16T09:52:20Z</time>
            </trkpt>
            <trkpt lon="101.082492" lat="14.323377">
                <ele>10.711792</ele>
                <time>2006-12-16T09:52:41Z</time>
            </trkpt>
            <trkpt lon="101.082456" lat="14.323347">
                <ele>10.711792</ele>
                <time>2006-12-16T09:52:43Z</time>
            </trkpt>
            <trkpt lon="101.082340" lat="14.323373">
                <ele>10.711792</ele>
                <time>2006-12-16T09:52:47Z</time>
            </trkpt>
            <trkpt lon="101.082079" lat="14.323351">
                <ele>9.269897</ele>
                <time>2006-12-16T09:52:54Z</time>
            </trkpt>
            <trkpt lon="101.081913" lat="14.322853">
                <ele>8.789185</ele>
                <time>2006-12-16T09:53:06Z</time>
            </trkpt>
            <trkpt lon="101.081634" lat="14.322006">
                <ele>9.269897</ele>
                <time>2006-12-16T09:53:24Z</time>
            </trkpt>
            <trkpt lon="101.081594" lat="14.321603">
                <ele>8.789185</ele>
                <time>2006-12-16T09:53:32Z</time>
            </trkpt>
            <trkpt lon="101.081737" lat="14.321125">
                <ele>8.308594</ele>
                <time>2006-12-16T09:53:42Z</time>
            </trkpt>
            <trkpt lon="101.081760" lat="14.320936">
                <ele>8.308594</ele>
                <time>2006-12-16T09:53:46Z</time>
            </trkpt>
            <trkpt lon="101.081680" lat="14.319888">
                <ele>7.347168</ele>
                <time>2006-12-16T09:54:08Z</time>
            </trkpt>
            <trkpt lon="101.081598" lat="14.318741">
                <ele>6.866455</ele>
                <time>2006-12-16T09:54:31Z</time>
            </trkpt>
            <trkpt lon="101.081532" lat="14.317886">
                <ele>5.424561</ele>
                <time>2006-12-16T09:54:48Z</time>
            </trkpt>
            <trkpt lon="101.081494" lat="14.316988">
                <ele>3.982666</ele>
                <time>2006-12-16T09:55:06Z</time>
            </trkpt>
            <trkpt lon="101.081387" lat="14.315964">
                <ele>3.982666</ele>
                <time>2006-12-16T09:55:27Z</time>
            </trkpt>
            <trkpt lon="101.081236" lat="14.314933">
                <ele>2.540649</ele>
                <time>2006-12-16T09:55:48Z</time>
            </trkpt>
            <trkpt lon="101.081072" lat="14.313874">
                <ele>3.982666</ele>
                <time>2006-12-16T09:56:10Z</time>
            </trkpt>
            <trkpt lon="101.081077" lat="14.312870">
                <ele>3.021240</ele>
                <time>2006-12-16T09:56:31Z</time>
            </trkpt>
            <trkpt lon="101.081056" lat="14.312495">
                <ele>3.021240</ele>
                <time>2006-12-16T09:56:39Z</time>
            </trkpt>
            <trkpt lon="101.081050" lat="14.312404">
                <ele>3.021240</ele>
                <time>2006-12-16T09:56:41Z</time>
            </trkpt>
            <trkpt lon="101.080964" lat="14.311764">
                <ele>3.021240</ele>
                <time>2006-12-16T09:56:55Z</time>
            </trkpt>
            <trkpt lon="101.080585" lat="14.310901">
                <ele>3.982666</ele>
                <time>2006-12-16T09:57:16Z</time>
            </trkpt>
            <trkpt lon="101.080338" lat="14.310020">
                <ele>3.982666</ele>
                <time>2006-12-16T09:57:36Z</time>
            </trkpt>
            <trkpt lon="101.080165" lat="14.308994">
                <ele>2.540649</ele>
                <time>2006-12-16T09:57:58Z</time>
            </trkpt>
            <trkpt lon="101.080070" lat="14.308326">
                <ele>3.501953</ele>
                <time>2006-12-16T09:58:14Z</time>
            </trkpt>
            <trkpt lon="101.079939" lat="14.307488">
                <ele>3.021240</ele>
                <time>2006-12-16T09:58:32Z</time>
            </trkpt>
            <trkpt lon="101.079754" lat="14.306290">
                <ele>2.540649</ele>
                <time>2006-12-16T09:58:55Z</time>
            </trkpt>
            <trkpt lon="101.079628" lat="14.305400">
                <ele>2.540649</ele>
                <time>2006-12-16T09:59:12Z</time>
            </trkpt>
            <trkpt lon="101.079460" lat="14.304143">
                <ele>2.060059</ele>
                <time>2006-12-16T09:59:35Z</time>
            </trkpt>
            <trkpt lon="101.079339" lat="14.302917">
                <ele>2.060059</ele>
                <time>2006-12-16T09:59:57Z</time>
            </trkpt>
            <trkpt lon="101.079242" lat="14.301952">
                <ele>1.579346</ele>
                <time>2006-12-16T10:00:14Z</time>
            </trkpt>
            <trkpt lon="101.079187" lat="14.301001">
                <ele>1.098633</ele>
                <time>2006-12-16T10:00:31Z</time>
            </trkpt>
            <trkpt lon="101.079118" lat="14.299829">
                <ele>0.618042</ele>
                <time>2006-12-16T10:00:53Z</time>
            </trkpt>
            <trkpt lon="101.079057" lat="14.298728">
                <ele>0.618042</ele>
                <time>2006-12-16T10:01:14Z</time>
            </trkpt>
            <trkpt lon="101.079004" lat="14.297682">
                <ele>0.137451</ele>
                <time>2006-12-16T10:01:35Z</time>
            </trkpt>
            <trkpt lon="101.078870" lat="14.296764">
                <ele>1.098633</ele>
                <time>2006-12-16T10:01:53Z</time>
            </trkpt>
            <trkpt lon="101.078726" lat="14.295858">
                <ele>0.618042</ele>
                <time>2006-12-16T10:02:12Z</time>
            </trkpt>
            <trkpt lon="101.078630" lat="14.295317">
                <ele>0.618042</ele>
                <time>2006-12-16T10:02:25Z</time>
            </trkpt>
            <trkpt lon="101.078627" lat="14.295221">
                <ele>0.618042</ele>
                <time>2006-12-16T10:02:27Z</time>
            </trkpt>
            <trkpt lon="101.078476" lat="14.294225">
                <ele>-0.343384</ele>
                <time>2006-12-16T10:02:50Z</time>
            </trkpt>
            <trkpt lon="101.078200" lat="14.294123">
                <ele>0.137451</ele>
                <time>2006-12-16T10:02:59Z</time>
            </trkpt>
            <trkpt lon="101.077189" lat="14.294116">
                <ele>-1.785278</ele>
                <time>2006-12-16T10:03:19Z</time>
            </trkpt>
            <trkpt lon="101.076292" lat="14.294128">
                <ele>-3.227295</ele>
                <time>2006-12-16T10:03:36Z</time>
            </trkpt>
            <trkpt lon="101.075656" lat="14.294157">
                <ele>-4.669312</ele>
                <time>2006-12-16T10:03:48Z</time>
            </trkpt>
            <trkpt lon="101.075491" lat="14.293992">
                <ele>-4.188599</ele>
                <time>2006-12-16T10:03:53Z</time>
            </trkpt>
            <trkpt lon="101.075404" lat="14.293592">
                <ele>-4.188599</ele>
                <time>2006-12-16T10:04:01Z</time>
            </trkpt>
            <trkpt lon="101.075278" lat="14.293458">
                <ele>-4.669312</ele>
                <time>2006-12-16T10:04:05Z</time>
            </trkpt>
            <trkpt lon="101.074516" lat="14.293519">
                <ele>-5.149902</ele>
                <time>2006-12-16T10:04:22Z</time>
            </trkpt>
            <trkpt lon="101.074197" lat="14.293541">
                <ele>-4.669312</ele>
                <time>2006-12-16T10:04:32Z</time>
            </trkpt>
            <trkpt lon="101.074121" lat="14.293300">
                <ele>-4.669312</ele>
                <time>2006-12-16T10:04:41Z</time>
            </trkpt>
            <trkpt lon="101.074132" lat="14.293313">
                <ele>-4.669312</ele>
                <time>2006-12-16T10:04:45Z</time>
            </trkpt>
        </trkseg>
    </trk>
</gpx>